PORTS® Data Listing: 9415144 Port Chicago, CA

CO-OPS RAW PORTS DATA

************************      PRELIMINARY DATA      ************************** 

     THIS RAW DATA HAS NOT BEEN SUBJECT TO THE NATIONAL OCEAN SERVICE'S        
     QUALITY CONTROL OR QUALITY ASSURANCE PROCEDURES AND DOES NOT MEET         
     THE CRITERIA AND STANDARDS OF OFFICIAL NATIONAL OCEAN SERVICE             
     DATA.  IT IS RELEASED FOR LIMITED PUBLIC USE AS PRELIMINARY DATA TO       
     BE USED ONLY WITH APPROPRIATE CAUTION.                                    

************************      PRELIMINARY DATA      ************************** 


       CD   -   Calendar date
       T    -   Time
       TZ   -   Timezone
       PW   -   Predicted water level (feet above MLLW)
       OW   -   Observed water level (feet above MLLW)
       WS   -   Wind speed (knots)
       WD   -   Wind direction (degrees true)
       WG   -   Wind gust (knots)
       AT   -   Air temperature (degrees farenheit)
       WT   -   Water temperature (degrees farenheit)
       AP   -   Air pressure (millibars)
       SA   -   Salinty (PSU - Practical Salinity Units)
       SG   -   Specific gravity
       RH   -   Relative humidity
       AG   -   Air gap (feet)
       VI   -   Visibility (nautical miles)

       ** NOTE **
       A variable that has its data fields filled with "9"s, indicates that
       data was not collected for that sample period.
       **********


STATION NAME: Port Chicago (9415144)
****************************************************************************************************
    CD       T    TZ    PW     OW    WS   WD   WG    AT    WT    AP    SA    SG     RH    AG   VI
****************************************************************************************************
2019/12/10 18:54 PST    0.07   0.44    5   20    7  53.1  53.8 1023.4 -9.9 -9.999 -99.9 -99.99 -9.99
2019/12/10 19:00 PST    0.04   0.40    6   18    7  52.9  53.8 1023.4 -9.9 -9.999 -99.9 -99.99 -9.99
2019/12/10 19:06 PST    0.01   0.37    6   32    7  52.7  53.8 1023.3 -9.9 -9.999 -99.9 -99.99 -9.99
2019/12/10 19:12 PST   -0.01   0.34    7   42    7  52.7  53.8 1023.3 -9.9 -9.999 -99.9 -99.99 -9.99
2019/12/10 19:18 PST   -0.03   0.31    6   30    7  52.5  53.8 1023.3 -9.9 -9.999 -99.9 -99.99 -9.99
2019/12/10 19:24 PST   -0.05   0.28    5   28    6  52.3  53.8 1023.4 -9.9 -9.999 -99.9 -99.99 -9.99
2019/12/10 19:30 PST   -0.06   0.25    4   31    6  52.3  53.8 1023.5 -9.9 -9.999 -99.9 -99.99 -9.99
2019/12/10 19:36 PST   -0.06   0.22    4   33    5  52.2  53.6 1023.6 -9.9 -9.999 -99.9 -99.99 -9.99
2019/12/10 19:42 PST   -0.07   0.20    5   26    6  52.2  53.6 1023.6 -9.9 -9.999 -99.9 -99.99 -9.99
2019/12/10 19:48 PST   -0.06   0.17    6   51    7  52.0  53.6 1023.4 -9.9 -9.999 -99.9 -99.99 -9.99
2019/12/10 19:54 PST   -0.05   0.16    5   61    7  52.0  53.6 1023.5 -9.9 -9.999 -99.9 -99.99 -9.99
2019/12/10 20:00 PST   -0.04   0.15    4   76    5  52.0  53.6 1023.5 -9.9 -9.999 -99.9 -99.99 -9.99
2019/12/10 20:06 PST   -0.02   0.14    4   86    6  51.8  53.6 1023.5 -9.9 -9.999 -99.9 -99.99 -9.99
2019/12/10 20:12 PST    0.01   0.14    5  100    5  51.6  53.6 1023.3 -9.9 -9.999 -99.9 -99.99 -9.99
2019/12/10 20:18 PST    0.03   0.15    6   86    7  51.6  53.6 1023.1 -9.9 -9.999 -99.9 -99.99 -9.99
2019/12/10 20:24 PST    0.07   0.17    7   87    8  51.4  53.6 1022.8 -9.9 -9.999 -99.9 -99.99 -9.99
2019/12/10 20:30 PST    0.11   0.20    6   80    7  51.4  53.6 1023.0 -9.9 -9.999 -99.9 -99.99 -9.99
2019/12/10 20:36 PST    0.16   0.25    7   88    8  51.4  53.6 1023.0 -9.9 -9.999 -99.9 -99.99 -9.99
2019/12/10 20:42 PST    0.21   0.29    7   86    8  51.4  53.6 1023.0 -9.9 -9.999 -99.9 -99.99 -9.99
2019/12/10 20:48 PST    0.26   0.35    5   96    8  51.4  53.6 1023.2 -9.9 -9.999 -99.9 -99.99 -9.99
2019/12/10 20:54 PST    0.32   0.41    3   93    7  51.4  53.6 1023.6 -9.9 -9.999 -99.9 -99.99 -9.99
2019/12/10 21:00 PST    0.39   0.48    4   93    4  51.4  53.4 1023.6 -9.9 -9.999 -99.9 -99.99 -9.99
2019/12/10 21:06 PST    0.45   0.56    3  119    5  51.4  53.4 1023.5 -9.9 -9.999 -99.9 -99.99 -9.99
2019/12/10 21:12 PST    0.53   0.63    4  111    6  51.4  53.2 1023.2 -9.9 -9.999 -99.9 -99.99 -9.99
2019/12/10 21:18 PST    0.60   0.72    4  127    6  51.6  53.2 1023.3 -9.9 -9.999 -99.9 -99.99 -9.99
2019/12/10 21:24 PST    0.68   0.81    5  113    7  51.6  53.2 1023.4 -9.9 -9.999 -99.9 -99.99 -9.99
2019/12/10 21:30 PST    0.77   0.92    6  102    7  51.6  53.2 1023.3 -9.9 -9.999 -99.9 -99.99 -9.99
2019/12/10 21:36 PST    0.85   1.03    6   89    8  51.6  53.2 1023.3 -9.9 -9.999 -99.9 -99.99 -9.99
2019/12/10 21:42 PST    0.94   1.14    4   79    7  51.6  53.2 1023.5 -9.9 -9.999 -99.9 -99.99 -9.99
2019/12/10 21:48 PST    1.03   1.25    5   80    6  51.8  53.2 1023.6 -9.9 -9.999 -99.9 -99.99 -9.99
2019/12/10 21:54 PST    1.12   1.37    5   72    7  52.0  53.2 1023.7 -9.9 -9.999 -99.9 -99.99 -9.99
2019/12/10 22:00 PST    1.21   1.48    5   73    6  52.0  53.2 1023.8 -9.9 -9.999 -99.9 -99.99 -9.99
2019/12/10 22:06 PST    1.30   1.59    6   72    7  52.2  53.2 1023.8 -9.9 -9.999 -99.9 -99.99 -9.99
2019/12/10 22:12 PST    1.40   1.71    7   74    8  52.0  53.1 1023.8 -9.9 -9.999 -99.9 -99.99 -9.99
2019/12/10 22:18 PST    1.49   1.83    7   81    9  51.8  53.1 1023.9 -9.9 -9.999 -99.9 -99.99 -9.99
2019/12/10 22:24 PST    1.59   1.95    7   87    8  51.8  53.1 1023.9 -9.9 -9.999 -99.9 -99.99 -9.99
2019/12/10 22:30 PST    1.68   2.07    7   89    8  51.6  53.1 1024.0 -9.9 -9.999 -99.9 -99.99 -9.99
2019/12/10 22:36 PST    1.77   2.19    7   82   10  51.6  53.1 1024.0 -9.9 -9.999 -99.9 -99.99 -9.99
2019/12/10 22:42 PST    1.87   2.30    7   81    9  51.6  53.1 1024.0 -9.9 -9.999 -99.9 -99.99 -9.99
2019/12/10 22:48 PST    1.96   2.42    7   81    9  51.6  53.1 1024.0 -9.9 -9.999 -99.9 -99.99 -9.99
2019/12/10 22:54 PST    2.05   2.52    8   83    9  51.6  53.1 1024.0 -9.9 -9.999 -99.9 -99.99 -9.99
2019/12/10 23:00 PST    2.14   2.63    8   87   10  51.4  53.1 1024.0 -9.9 -9.999 -99.9 -99.99 -9.99
2019/12/10 23:06 PST    2.23   2.72    8   84   10  51.4  53.1 1023.9 -9.9 -9.999 -99.9 -99.99 -9.99
2019/12/10 23:12 PST    2.32   2.81    8   88   10  51.3  53.1 1024.0 -9.9 -9.999 -99.9 -99.99 -9.99
2019/12/10 23:18 PST    2.40   2.90    9   90   10  51.3  53.1 1024.0 -9.9 -9.999 -99.9 -99.99 -9.99
2019/12/10 23:24 PST    2.49   2.99    7   87   10  51.1  53.1 1024.2 -9.9 -9.999 -99.9 -99.99 -9.99
2019/12/10 23:30 PST    2.57   3.07    7   88   10  51.1  53.1 1024.2 -9.9 -9.999 -99.9 -99.99 -9.99
2019/12/10 23:36 PST    2.65   3.14    7   92    9  51.1  53.1 1024.3 -9.9 -9.999 -99.9 -99.99 -9.99
2019/12/10 23:42 PST    2.73   3.22    7   90    9  51.1  53.1 1024.3 -9.9 -9.999 -99.9 -99.99 -9.99
2019/12/10 23:48 PST    2.81   3.28    7   92    9  50.9  53.1 1024.2 -9.9 -9.999 -99.9 -99.99 -9.99
2019/12/10 23:54 PST    2.88   3.35    5   94    8  50.9  53.1 1024.2 -9.9 -9.999 -99.9 -99.99 -9.99
2019/12/11 00:00 PST    2.95   3.42    6   98    9  50.9  53.1 1024.2 -9.9 -9.999 -99.9 -99.99 -9.99
2019/12/11 00:06 PST    3.02   3.48    6   91    7  50.9  53.1 1023.9 -9.9 -9.999 -99.9 -99.99 -9.99
2019/12/11 00:12 PST    3.09   3.54    5   89    7  50.9  53.1 1023.9 -9.9 -9.999 -99.9 -99.99 -9.99
2019/12/11 00:18 PST    3.16   3.59    5   74    7  51.1  53.1 1023.8 -9.9 -9.999 -99.9 -99.99 -9.99
2019/12/11 00:24 PST    3.22   3.64    6   73    7  51.3  53.1 1023.8 -9.9 -9.999 -99.9 -99.99 -9.99
2019/12/11 00:30 PST    3.28   3.69    6   74    7  51.3  53.2 1024.0 -9.9 -9.999 -99.9 -99.99 -9.99
2019/12/11 00:36 PST    3.33   3.73    6   82    7  51.3  53.1 1023.9 -9.9 -9.999 -99.9 -99.99 -9.99
2019/12/11 00:42 PST    3.38   3.77    6   83    7  51.3  53.1 1023.8 -9.9 -9.999 -99.9 -99.99 -9.99
2019/12/11 00:48 PST    3.43   3.82    6   83    8  51.3  53.1 1023.6 -9.9 -9.999 -99.9 -99.99 -9.99
2019/12/11 00:54 PST    3.48   3.85    6   90    8  51.1  53.1 1023.6 -9.9 -9.999 -99.9 -99.99 -9.99
2019/12/11 01:00 PST    3.52   3.87    5   93    8  51.1  53.1 1023.6 -9.9 -9.999 -99.9 -99.99 -9.99
2019/12/11 01:06 PST    3.55   3.90    5   92    8  51.1  53.2 1023.6 -9.9 -9.999 -99.9 -99.99 -9.99
2019/12/11 01:12 PST    3.59   3.92    6   97    8  50.9  53.2 1023.5 -9.9 -9.999 -99.9 -99.99 -9.99
2019/12/11 01:18 PST    3.61   3.94    5   95    7  50.9  53.2 1023.3 -9.9 -9.999 -99.9 -99.99 -9.99
2019/12/11 01:24 PST    3.64   3.96    4  111    8  50.9  53.2 1023.3 -9.9 -9.999 -99.9 -99.99 -9.99
2019/12/11 01:30 PST    3.66   3.96    5  114    6  50.7  53.2 1023.3 -9.9 -9.999 -99.9 -99.99 -9.99
2019/12/11 01:36 PST    3.67   3.98    5   99    5  50.7  53.2 1023.3 -9.9 -9.999 -99.9 -99.99 -9.99
2019/12/11 01:42 PST    3.68   3.98    6   86    8  50.7  53.2 1023.1 -9.9 -9.999 -99.9 -99.99 -9.99
2019/12/11 01:48 PST    3.69   3.99    6   86    8  50.5  53.2 1023.0 -9.9 -9.999 -99.9 -99.99 -9.99
2019/12/11 01:54 PST    3.69   3.98    5   83    8  50.5  53.2 1023.0 -9.9 -9.999 -99.9 -99.99 -9.99
2019/12/11 02:00 PST    3.68   3.98    5   80    6  50.5  53.2 1023.0 -9.9 -9.999 -99.9 -99.99 -9.99
2019/12/11 02:06 PST    3.67   3.96    5   81    6  50.5  53.2 1023.1 -9.9 -9.999 -99.9 -99.99 -9.99
2019/12/11 02:12 PST    3.66   3.96    4   82    6  50.5  53.2 1023.1 -9.9 -9.999 -99.9 -99.99 -9.99
2019/12/11 02:18 PST    3.64   3.95    4   75    5  50.5  53.2 1023.1 -9.9 -9.999 -99.9 -99.99 -9.99
2019/12/11 02:24 PST    3.62   3.94    4   65    5  50.9  53.2 1023.1 -9.9 -9.999 -99.9 -99.99 -9.99
2019/12/11 02:30 PST    3.59   3.92    4   59    5  51.3  53.2 1023.1 -9.9 -9.999 -99.9 -99.99 -9.99
2019/12/11 02:36 PST    3.56   3.90    4   59    5  51.4  53.2 1023.1 -9.9 -9.999 -99.9 -99.99 -9.99
2019/12/11 02:42 PST    3.53   3.88    5   63    5  51.4  53.2 1022.8 -9.9 -9.999 -99.9 -99.99 -9.99
2019/12/11 02:48 PST    3.49   3.84    6   62    6  51.4  53.2 1022.8 -9.9 -9.999 -99.9 -99.99 -9.99
2019/12/11 02:54 PST    3.45   3.81    4   62    6  51.6  53.2 1023.0 -9.9 -9.999 -99.9 -99.99 -9.99
2019/12/11 03:00 PST    3.40   3.77    4   72    5  51.6  53.2 1023.0 -9.9 -9.999 -99.9 -99.99 -9.99
2019/12/11 03:06 PST    3.35   3.73    4   62    5  51.6  53.2 1023.1 -9.9 -9.999 -99.9 -99.99 -9.99
2019/12/11 03:12 PST    3.30   3.69    5   40    6  51.6  53.2 1023.2 -9.9 -9.999 -99.9 -99.99 -9.99
2019/12/11 03:18 PST    3.25   3.64    4   14    5  51.4  53.2 1023.1 -9.9 -9.999 -99.9 -99.99 -9.99
2019/12/11 03:24 PST    3.19   3.58    6  355    6  51.1  53.2 1023.0 -9.9 -9.999 -99.9 -99.99 -9.99
2019/12/11 03:30 PST    3.13   3.52    5  359    6  51.3  53.2 1023.2 -9.9 -9.999 -99.9 -99.99 -9.99
2019/12/11 03:36 PST    3.07   3.47    5    4    6  51.3  53.2 1023.0 -9.9 -9.999 -99.9 -99.99 -9.99
2019/12/11 03:42 PST    3.01   3.40    5    4    5  51.3  53.2 1023.0 -9.9 -9.999 -99.9 -99.99 -9.99
2019/12/11 03:48 PST    2.95   3.34    5    9    5  51.1  53.2 1023.0 -9.9 -9.999 -99.9 -99.99 -9.99
2019/12/11 03:54 PST    2.89   3.26    5   13    6  51.3  53.2 1023.0 -9.9 -9.999 -99.9 -99.99 -9.99
2019/12/11 04:00 PST    2.83   3.20    5   25    6  51.1  53.2 1022.9 -9.9 -9.999 -99.9 -99.99 -9.99
2019/12/11 04:06 PST    2.77   3.12    4   28    5  51.3  53.2 1022.8 -9.9 -9.999 -99.9 -99.99 -9.99
2019/12/11 04:12 PST    2.70   3.06    4   31    5  51.1  53.2 1022.7 -9.9 -9.999 -99.9 -99.99 -9.99
2019/12/11 04:18 PST    2.64   2.98    4   43    5  51.1  53.2 1022.7 -9.9 -9.999 -99.9 -99.99 -9.99
2019/12/11 04:24 PST    2.58   2.90    4   55    5  51.1  53.2 1022.7 -9.9 -9.999 -99.9 -99.99 -9.99
2019/12/11 04:30 PST    2.52   2.83    3   36    4  51.3  53.2 1022.8 -9.9 -9.999 -99.9 -99.99 -9.99
2019/12/11 04:36 PST    2.47   2.76    4   37    4  51.1  53.2 1022.7 -9.9 -9.999 -99.9 -99.99 -9.99
2019/12/11 04:42 PST    2.41   2.68    3   28    3  51.3  53.2 1022.8 -9.9 -9.999 -99.9 -99.99 -9.99
2019/12/11 04:48 PST    2.36   2.62    3   41    4  51.4  53.2 1022.8 -9.9 -9.999 -99.9 -99.99 -9.99
2019/12/11 04:54 PST    2.31   2.55    4   22    5  51.6  53.2 1022.9 -9.9 -9.999 -99.9 -99.99 -9.99
2019/12/11 05:00 PST    2.26   2.49    5   24    5  51.4  53.2 1023.0 -9.9 -9.999 -99.9 -99.99 -9.99
2019/12/11 05:06 PST    2.21   2.43    5   24    6  51.4  53.2 1023.1 -9.9 -9.999 -99.9 -99.99 -9.99
2019/12/11 05:12 PST    2.17   2.37    5   26    6  51.3  53.2 1023.1 -9.9 -9.999 -99.9 -99.99 -9.99
2019/12/11 05:18 PST    2.13   2.31    4   23    5  51.4  53.2 1023.2 -9.9 -9.999 -99.9 -99.99 -9.99
2019/12/11 05:24 PST    2.09   2.26    4   29    4  51.4  53.2 1023.2 -9.9 -9.999 -99.9 -99.99 -9.99
2019/12/11 05:30 PST    2.06   2.22    4   46    5  51.4  53.2 1023.3 -9.9 -9.999 -99.9 -99.99 -9.99
2019/12/11 05:36 PST    2.03   2.17    5   45    5  51.4  53.2 1023.3 -9.9 -9.999 -99.9 -99.99 -9.99
2019/12/11 05:42 PST    2.00   2.13    7   61    7  51.3  53.2 1023.1 -9.9 -9.999 -99.9 -99.99 -9.99
2019/12/11 05:48 PST    1.98   2.10    6   67    8  51.3  53.2 1023.2 -9.9 -9.999 -99.9 -99.99 -9.99
2019/12/11 05:54 PST    1.95   2.07    7   71    8  51.1  53.2 1023.1 -9.9 -9.999 -99.9 -99.99 -9.99
2019/12/11 06:00 PST    1.94   2.04    6   65    8  51.1  53.2 1023.3 -9.9 -9.999 -99.9 -99.99 -9.99
2019/12/11 06:06 PST    1.92   2.02    7   67    7  51.1  53.2 1023.2 -9.9 -9.999 -99.9 -99.99 -9.99
2019/12/11 06:12 PST    1.91   2.00    5   69    7  51.1  53.2 1023.2 -9.9 -9.999 -99.9 -99.99 -9.99
2019/12/11 06:18 PST    1.90   2.00    6   60    7  50.9  53.2 1023.3 -9.9 -9.999 -99.9 -99.99 -9.99
2019/12/11 06:24 PST    1.90   2.00    6   56    6  50.9  53.2 1023.5 -9.9 -9.999 -99.9 -99.99 -9.99
2019/12/11 06:30 PST    1.89   1.99    6   64    7  51.1  53.2 1023.3 -9.9 -9.999 -99.9 -99.99 -9.99
2019/12/11 06:36 PST    1.90   2.00    6   60    7  51.1  53.2 1023.3 -9.9 -9.999 -99.9 -99.99 -9.99
2019/12/11 06:42 PST    1.90   2.01    6   57    7  51.1  53.2 1023.5 -9.9 -9.999 -99.9 -99.99 -9.99
2019/12/11 06:48 PST    1.91   2.03    6   62    7  51.1  53.2 1023.3 -9.9 -9.999 -99.9 -99.99 -9.99
2019/12/11 06:54 PST    1.92   2.05    7   62    7  51.1  53.2 1023.3 -9.9 -9.999 -99.9 -99.99 -9.99
2019/12/11 07:00 PST    1.94   2.08    7   62    8  51.1  53.2 1023.4 -9.9 -9.999 -99.9 -99.99 -9.99
2019/12/11 07:06 PST    1.96   2.11    5   71    8  51.3  53.2 1023.4 -9.9 -9.999 -99.9 -99.99 -9.99
2019/12/11 07:12 PST    1.98   2.15    7   72    8  51.1  53.2 1023.4 -9.9 -9.999 -99.9 -99.99 -9.99
2019/12/11 07:18 PST    2.01   2.19    6   78    7  51.1  53.2 1023.3 -9.9 -9.999 -99.9 -99.99 -9.99
2019/12/11 07:24 PST    2.04   2.24    7   78    8  51.1  53.2 1023.5 -9.9 -9.999 -99.9 -99.99 -9.99
2019/12/11 07:30 PST    2.07   2.30    6   78    7  51.1  53.2 1023.4 -9.9 -9.999 -99.9 -99.99 -9.99
2019/12/11 07:36 PST    2.11   2.35    7   76    8  51.3  53.2 1023.3 -9.9 -9.999 -99.9 -99.99 -9.99
2019/12/11 07:42 PST    2.15   2.41    7   77    8  51.3  53.2 1023.3 -9.9 -9.999 -99.9 -99.99 -9.99
2019/12/11 07:48 PST    2.20   2.48    5   75    8  51.3  53.2 1023.4 -9.9 -9.999 -99.9 -99.99 -9.99
2019/12/11 07:54 PST    2.25   2.55    7   64    8  51.3  53.2 1023.5 -9.9 -9.999 -99.9 -99.99 -9.99
2019/12/11 08:00 PST    2.31   2.63    7   66    9  51.1  53.2 1023.4 -9.9 -9.999 -99.9 -99.99 -9.99
2019/12/11 08:06 PST    2.37   2.71    6   72    8  51.1  53.2 1023.4 -9.9 -9.999 -99.9 -99.99 -9.99
2019/12/11 08:12 PST    2.43   2.80    7   61    9  51.1  53.2 1023.5 -9.9 -9.999 -99.9 -99.99 -9.99
2019/12/11 08:18 PST    2.50   2.88    8   73    9  51.1  53.2 1023.5 -9.9 -9.999 -99.9 -99.99 -9.99
2019/12/11 08:24 PST    2.57   2.97    9   71   10  51.1  53.2 1023.4 -9.9 -9.999 -99.9 -99.99 -9.99
2019/12/11 08:30 PST    2.65   3.06    8   74   10  51.3  53.2 1023.5 -9.9 -9.999 -99.9 -99.99 -9.99
2019/12/11 08:36 PST    2.73   3.15    8   74   10  51.3  53.2 1023.5 -9.9 -9.999 -99.9 -99.99 -9.99
2019/12/11 08:42 PST    2.82   3.26    8   73   10  51.3  53.2 1023.7 -9.9 -9.999 -99.9 -99.99 -9.99
2019/12/11 08:48 PST    2.90   3.35    7   70    9  51.4  53.2 1023.7 -9.9 -9.999 -99.9 -99.99 -9.99
2019/12/11 08:54 PST    3.00   3.44    7   66   10  51.4  53.2 1023.7 -9.9 -9.999 -99.9 -99.99 -9.99
2019/12/11 09:00 PST    3.09   3.54    7   66    9  51.3  53.2 1023.9 -9.9 -9.999 -99.9 -99.99 -9.99
2019/12/11 09:06 PST    3.19   3.63    8   64    9  51.3  53.2 1024.0 -9.9 -9.999 -99.9 -99.99 -9.99
2019/12/11 09:12 PST    3.29   3.73    7   63    9  51.3  53.2 1024.0 -9.9 -9.999 -99.9 -99.99 -9.99
2019/12/11 09:18 PST    3.39   3.83    7   64    8  51.4  53.2 1023.9 -9.9 -9.999 -99.9 -99.99 -9.99
2019/12/11 09:24 PST    3.49   3.93    8   69    9  51.4  53.2 1023.9 -9.9 -9.999 -99.9 -99.99 -9.99
2019/12/11 09:30 PST    3.59   4.02    8   62    9  51.4  53.2 1024.0 -9.9 -9.999 -99.9 -99.99 -9.99
2019/12/11 09:36 PST    3.70   4.12    8   62    9  51.4  53.2 1023.9 -9.9 -9.999 -99.9 -99.99 -9.99
2019/12/11 09:42 PST    3.80   4.21    7   63    9  51.4  53.2 1024.1 -9.9 -9.999 -99.9 -99.99 -9.99
2019/12/11 09:48 PST    3.90   4.30    7   69    8  51.4  53.2 1024.0 -9.9 -9.999 -99.9 -99.99 -9.99
2019/12/11 09:54 PST    4.01   4.38    8   70    9  51.4  53.2 1023.8 -9.9 -9.999 -99.9 -99.99 -9.99
2019/12/11 10:00 PST    4.11   4.47    7   67    8  51.4  53.2 1023.9 -9.9 -9.999 -99.9 -99.99 -9.99
2019/12/11 10:06 PST    4.21   4.53    8   63    9  51.4  53.2 1023.9 -9.9 -9.999 -99.9 -99.99 -9.99
2019/12/11 10:12 PST    4.31   4.61    8   57    8  51.4  53.2 1023.9 -9.9 -9.999 -99.9 -99.99 -9.99
2019/12/11 10:18 PST    4.40   4.69    7   58    8  51.4  53.2 1024.0 -9.9 -9.999 -99.9 -99.99 -9.99
2019/12/11 10:24 PST    4.50   4.77    8   59    9  51.3  53.2 1023.9 -9.9 -9.999 -99.9 -99.99 -9.99
2019/12/11 10:30 PST    4.58   4.83    7   51    9  51.6  53.2 1024.0 -9.9 -9.999 -99.9 -99.99 -9.99
2019/12/11 10:36 PST    4.67   4.90    8   48    9  51.4  53.2 1024.1 -9.9 -9.999 -99.9 -99.99 -9.99
2019/12/11 10:42 PST    4.75   4.97    8   46    8  51.6  53.2 1024.2 -9.9 -9.999 -99.9 -99.99 -9.99
2019/12/11 10:48 PST    4.83   5.03    6   38    8  51.8  53.2 1024.3 -9.9 -9.999 -99.9 -99.99 -9.99
2019/12/11 10:54 PST    4.90   5.09    7   37    8  51.6  53.2 1024.3 -9.9 -9.999 -99.9 -99.99 -9.99
2019/12/11 11:00 PST    4.96   5.15    7   43    8  51.8  53.2 1024.3 -9.9 -9.999 -99.9 -99.99 -9.99
2019/12/11 11:06 PST    5.03   5.19    6   34    8  51.8  53.2 1024.4 -9.9 -9.999 -99.9 -99.99 -9.99
2019/12/11 11:12 PST    5.08   5.23    6   44    7  51.8  53.2 1024.3 -9.9 -9.999 -99.9 -99.99 -9.99
2019/12/11 11:18 PST    5.13   5.28    5   41    7  52.0  53.4 1024.3 -9.9 -9.999 -99.9 -99.99 -9.99
2019/12/11 11:24 PST    5.18   5.31    6   48    7  51.8  53.4 1024.2 -9.9 -9.999 -99.9 -99.99 -9.99
2019/12/11 11:30 PST    5.22   5.35    6   54    7  52.0  53.4 1024.1 -9.9 -9.999 -99.9 -99.99 -9.99
2019/12/11 11:36 PST    5.25   5.38    5   61    6  51.8  53.4 1024.2 -9.9 -9.999 -99.9 -99.99 -9.99
2019/12/11 11:42 PST    5.28   5.41    6   53    6  52.0  53.4 1024.1 -9.9 -9.999 -99.9 -99.99 -9.99
2019/12/11 11:48 PST    5.31   5.44    6   40    7  52.2  53.4 1023.9 -9.9 -9.999 -99.9 -99.99 -9.99
2019/12/11 11:54 PST    5.33   5.47    7   56    7  52.0  53.4 1023.7 -9.9 -9.999 -99.9 -99.99 -9.99
2019/12/11 12:00 PST    5.34   5.50    6   57    7  52.0  53.4 1023.7 -9.9 -9.999 -99.9 -99.99 -9.99
2019/12/11 12:06 PST    5.35   5.51    4   52    6  52.2  53.4 1023.6 -9.9 -9.999 -99.9 -99.99 -9.99
2019/12/11 12:12 PST    5.35   5.53    6   55    6  52.0  53.4 1023.5 -9.9 -9.999 -99.9 -99.99 -9.99
2019/12/11 12:18 PST    5.35   5.54    4   57    6  52.0  53.4 1023.5 -9.9 -9.999 -99.9 -99.99 -9.99
2019/12/11 12:24 PST    5.34   5.55    5   48    6  52.0  53.4 1023.5 -9.9 -9.999 -99.9 -99.99 -9.99
2019/12/11 12:30 PST    5.33   5.55    6   53    6  52.2  53.4 1023.5 -9.9 -9.999 -99.9 -99.99 -9.99
2019/12/11 12:36 PST    5.31   5.54    5   56    6  52.2  53.6 1023.4 -9.9 -9.999 -99.9 -99.99 -9.99
2019/12/11 12:42 PST    5.29   5.55    5   62    6  52.2  53.6 1023.3 -9.9 -9.999 -99.9 -99.99 -9.99
2019/12/11 12:48 PST    5.26   5.54    4   59    5  52.3  53.6 1023.2 -9.9 -9.999 -99.9 -99.99 -9.99
2019/12/11 12:54 PST    5.23   5.53    4   70    5  52.2  53.6 1023.1 -9.9 -9.999 -99.9 -99.99 -9.99
2019/12/11 13:00 PST    5.20   5.52    3   69    5  52.2  53.6 1023.2 -9.9 -9.999 -99.9 -99.99 -9.99
2019/12/11 13:06 PST    5.16   5.50    4   60    5  52.0  53.6 1023.0 -9.9 -9.999 -99.9 -99.99 -9.99
2019/12/11 13:12 PST    5.11   5.47    5   79    6  52.2  53.6 1022.8 -9.9 -9.999 -99.9 -99.99 -9.99
2019/12/11 13:18 PST    5.06   5.44    4   78    7  52.2  53.6 1022.7 -9.9 -9.999 -99.9 -99.99 -9.99
2019/12/11 13:24 PST    5.01   5.39    5   66    6  52.2  53.6 1022.5 -9.9 -9.999 -99.9 -99.99 -9.99
2019/12/11 13:30 PST    4.95   5.36    5   73    6  52.0  53.6 1022.5 -9.9 -9.999 -99.9 -99.99 -9.99
2019/12/11 13:36 PST    4.89   5.30    5   70    6  52.2  53.6 1022.5 -9.9 -9.999 -99.9 -99.99 -9.99
2019/12/11 13:42 PST    4.83   5.25    5   60    7  52.2  53.6 1022.5 -9.9 -9.999 -99.9 -99.99 -9.99
2019/12/11 13:48 PST    4.76   5.18    6   64    7  52.2  53.4 1022.5 -9.9 -9.999 -99.9 -99.99 -9.99
2019/12/11 13:54 PST    4.69   5.11    6   65    7  52.2  53.6 1022.5 -9.9 -9.999 -99.9 -99.99 -9.99
2019/12/11 14:00 PST    4.61   5.02    6   62    7  52.2  53.6 1022.6 -9.9 -9.999 -99.9 -99.99 -9.99
2019/12/11 14:06 PST    4.53   4.94    7   61    7  52.2  53.6 1022.6 -9.9 -9.999 -99.9 -99.99 -9.99
2019/12/11 14:12 PST    4.45   4.84    7   65    8  52.2  53.6 1022.6 -9.9 -9.999 -99.9 -99.99 -9.99
2019/12/11 14:18 PST    4.36   4.75    6   66    7  52.3  53.6 1022.6 -9.9 -9.999 -99.9 -99.99 -9.99
2019/12/11 14:24 PST    4.27   4.64    6   68    7  52.3  53.6 1022.8 -9.9 -9.999 -99.9 -99.99 -9.99
2019/12/11 14:30 PST    4.18   4.54    7   64    7  52.2  53.6 1022.6 -9.9 -9.999 -99.9 -99.99 -9.99
2019/12/11 14:36 PST    4.08   4.44    6   66    8  52.3  53.6 1022.7 -9.9 -9.999 -99.9 -99.99 -9.99
2019/12/11 14:42 PST    3.99   4.33    6   67    8  52.3  53.6 1022.5 -9.9 -9.999 -99.9 -99.99 -9.99
2019/12/11 14:48 PST    3.89   4.22    6   74    8  52.3  53.6 1022.5 -9.9 -9.999 -99.9 -99.99 -9.99
2019/12/11 14:54 PST    3.78   4.09    6   78    7  52.2  53.6 1022.5 -9.9 -9.999 -99.9 -99.99 -9.99
2019/12/11 15:00 PST    3.68   3.97    6   74    7  52.2  53.6 1022.6 -9.9 -9.999 -99.9 -99.99 -9.99
2019/12/11 15:06 PST    3.57   3.85    6   74    8  52.2  53.6 1022.6 -9.9 -9.999 -99.9 -99.99 -9.99
2019/12/11 15:12 PST    3.47   3.74    7   69    8  52.3  53.6 1022.7 -9.9 -9.999 -99.9 -99.99 -9.99
2019/12/11 15:18 PST    3.36   3.62    6   70    8  52.3  53.6 1022.8 -9.9 -9.999 -99.9 -99.99 -9.99
2019/12/11 15:24 PST    3.25   3.49    7   64    8  52.3  53.6 1022.8 -9.9 -9.999 -99.9 -99.99 -9.99
2019/12/11 15:30 PST    3.14   3.38    6   67    7  52.3  53.6 1022.8 -9.9 -9.999 -99.9 -99.99 -9.99
2019/12/11 15:36 PST    3.03   3.27    7   78    8  52.3  53.6 1022.5 -9.9 -9.999 -99.9 -99.99 -9.99
2019/12/11 15:42 PST    2.91   3.16    8   84    9  52.5  53.6 1022.5 -9.9 -9.999 -99.9 -99.99 -9.99
2019/12/11 15:48 PST    2.80   3.06    6   74    8  52.5  53.6 1022.5 -9.9 -9.999 -99.9 -99.99 -9.99
2019/12/11 15:54 PST    2.69   2.95    7   74    9  52.3  53.6 1022.5 -9.9 -9.999 -99.9 -99.99 -9.99
2019/12/11 16:00 PST    2.58   2.84    7   82    9  52.3  53.6 1022.7 -9.9 -9.999 -99.9 -99.99 -9.99
2019/12/11 16:06 PST    2.47   2.74    7   71    9  52.3  53.6 1022.6 -9.9 -9.999 -99.9 -99.99 -9.99
2019/12/11 16:12 PST    2.36   2.63    6   71    8  52.5  53.6 1022.7 -9.9 -9.999 -99.9 -99.99 -9.99
2019/12/11 16:18 PST    2.26   2.54    7   66    8  52.5  53.6 1022.6 -9.9 -9.999 -99.9 -99.99 -9.99
2019/12/11 16:24 PST    2.15   2.44    7   62    8  52.5  53.6 1022.7 -9.9 -9.999 -99.9 -99.99 -9.99
2019/12/11 16:30 PST    2.05   2.35    9   66   10  52.5  53.6 1022.4 -9.9 -9.999 -99.9 -99.99 -9.99
2019/12/11 16:36 PST    1.94   2.27    8   67   10  52.5  53.6 1022.3 -9.9 -9.999 -99.9 -99.99 -9.99
2019/12/11 16:42 PST    1.84   2.19    9   57   10  52.5  53.6 1022.5 -9.9 -9.999 -99.9 -99.99 -9.99
2019/12/11 16:48 PST    1.75   2.11   10   54   11  52.5  53.6 1022.3 -9.9 -9.999 -99.9 -99.99 -9.99
2019/12/11 16:54 PST    1.65   2.04    7   50   11  52.7  53.6 1022.7 -9.9 -9.999 -99.9 -99.99 -9.99
2019/12/11 17:00 PST    1.55   1.96    7   49    8  52.7  53.6 1022.7 -9.9 -9.999 -99.9 -99.99 -9.99
2019/12/11 17:06 PST    1.46   1.88    7   61    8  52.7  53.6 1022.3 -9.9 -9.999 -99.9 -99.99 -9.99
2019/12/11 17:12 PST    1.37   1.81    9   69   10  52.9  53.6 1022.0 -9.9 -9.999 -99.9 -99.99 -9.99
2019/12/11 17:18 PST    1.29   1.74   10   63   11  52.9  53.6 1021.9 -9.9 -9.999 -99.9 -99.99 -9.99
2019/12/11 17:24 PST    1.20   1.68    8   70   10  52.9  53.6 1021.7 -9.9 -9.999 -99.9 -99.99 -9.99
2019/12/11 17:30 PST    1.12   1.61    8   65   10  52.9  53.6 1021.8 -9.9 -9.999 -99.9 -99.99 -9.99
2019/12/11 17:36 PST    1.04   1.55    7   66   10  52.9  53.6 1022.0 -9.9 -9.999 -99.9 -99.99 -9.99
2019/12/11 17:42 PST    0.97   1.49    5   66    7  53.1  53.6 1022.0 -9.9 -9.999 -99.9 -99.99 -9.99
2019/12/11 17:48 PST    0.89   1.42    6   71    8  53.1  53.6 1022.0 -9.9 -9.999 -99.9 -99.99 -9.99
2019/12/11 17:54 PST    0.82   1.36    6   73    7  53.1  53.6 1022.0 -9.9 -9.999 -99.9 -99.99 -9.99
2019/12/11 18:00 PST    0.75   1.29    6   69    8  53.1  53.6 1021.9 -9.9 -9.999 -99.9 -99.99 -9.99
2019/12/11 18:06 PST    0.69   1.22    7   76    8  53.2  53.6 1021.8 -9.9 -9.999 -99.9 -99.99 -9.99
2019/12/11 18:12 PST    0.62   1.14    7   73    8  53.2  53.6 1021.6 -9.9 -9.999 -99.9 -99.99 -9.99
2019/12/11 18:18 PST    0.56   1.08    6   77    8  53.2  53.6 1021.5 -9.9 -9.999 -99.9 -99.99 -9.99
2019/12/11 18:24 PST    0.50   1.03    5   85    6  53.2  53.6 1021.6 -9.9 -9.999 -99.9 -99.99 -9.99
2019/12/11 18:30 PST    0.45   0.98    4   72    6  53.2  53.6 1021.7 -9.9 -9.999 -99.9 -99.99 -9.99
2019/12/11 18:36 PST    0.39   0.92    4   62    6  53.2  53.6 1021.8 -9.9 -9.999 -99.9 -99.99 -9.99
2019/12/11 18:42 PST    0.34   0.87    6   62    7  53.4  53.6 1021.7 -9.9 -9.999 -99.9 -99.99 -9.99
2019/12/11 18:48 PST    0.29   0.81    5   72    7  53.4  53.6 1021.5 -9.9 -9.999 -99.9 -99.99 -9.99
2019/12/11 18:54 PST    0.24   0.74    6   76    7  53.4  53.6 1021.3 -9.9 -9.999 -99.9 -99.99 -9.99
2019/12/11 19:00 PST    0.20   0.67    5   71    7  53.4  53.6 1021.4 -9.9 -9.999 -99.9 -99.99 -9.99
2019/12/11 19:06 PST    0.15   0.61    4   61    7  53.4  53.6 1021.7 -9.9 -9.999 -99.9 -99.99 -9.99
2019/12/11 19:12 PST    0.11   0.55    4   52    4  53.6  53.6 1022.0 -9.9 -9.999 -99.9 -99.99 -9.99
2019/12/11 19:18 PST    0.07   0.49    5   53    5  53.6  53.6 1022.0 -9.9 -9.999 -99.9 -99.99 -9.99
2019/12/11 19:24 PST    0.04   0.44    6   65    7  53.6  53.6 1021.9 -9.9 -9.999 -99.9 -99.99 -9.99
2019/12/11 19:30 PST    0.00   0.39    6    7    7  53.6  53.6 1022.4 -9.9 -9.999 -99.9 -99.99 -9.99
2019/12/11 19:36 PST   -0.03   0.34   11  341   12  53.4  53.6 1022.8 -9.9 -9.999 -99.9 -99.99 -9.99
2019/12/11 19:42 PST   -0.05   0.29    8    4   12  53.2  53.6 1022.5 -9.9 -9.999 -99.9 -99.99 -9.99
2019/12/11 19:48 PST   -0.08   0.25    8   48    9  53.2  53.6 1022.1 -9.9 -9.999 -99.9 -99.99 -9.99
2019/12/11 19:54 PST   -0.10   0.20    6   39    8  53.2  53.6 1022.3 -9.9 -9.999 -99.9 -99.99 -9.99
2019/12/11 20:00 PST   -0.11   0.17    6   51    7  53.2  53.6 1022.2 -9.9 -9.999 -99.9 -99.99 -9.99
2019/12/11 20:06 PST   -0.13   0.14    6   57    7  53.1  53.6 1022.1 -9.9 -9.999 -99.9 -99.99 -9.99
2019/12/11 20:12 PST   -0.14   0.12    6   77    7  53.1  53.6 1021.9 -9.9 -9.999 -99.9 -99.99 -9.99
2019/12/11 20:18 PST   -0.14   0.10    7   72    9  53.1  53.6 1021.7 -9.9 -9.999 -99.9 -99.99 -9.99
2019/12/11 20:24 PST   -0.14   0.07    7   83    9  52.9  53.6 1021.7 -9.9 -9.999 -99.9 -99.99 -9.99
2019/12/11 20:30 PST   -0.14   0.04    4   92    7  52.9  53.6 1021.9 -9.9 -9.999 -99.9 -99.99 -9.99
2019/12/11 20:36 PST   -0.13   0.04    3   97    5  52.9  53.6 1021.9 -9.9 -9.999 -99.9 -99.99 -9.99
2019/12/11 20:42 PST   -0.11   0.02    3   84    4  52.9  53.6 1021.8 -9.9 -9.999 -99.9 -99.99 -9.99
2019/12/11 20:48 PST   -0.09   0.03    3   90    4  53.1  53.6 1022.0 -9.9 -9.999 -99.9 -99.99 -9.99
2019/12/11 20:54 PST   -0.07   0.04    1  279    2  53.1  53.6 1022.2 -9.9 -9.999 -99.9 -99.99 -9.99
2019/12/11 21:00 PST   -0.04   0.06    6   56    7  53.1  53.6 1021.9 -9.9 -9.999 -99.9 -99.99 -9.99
2019/12/11 21:06 PST   -0.00   0.09    4   67    7  53.1  53.6 1022.0 -9.9 -9.999 -99.9 -99.99 -9.99
2019/12/11 21:12 PST    0.04   0.11    6   56    7  52.9  53.6 1022.0 -9.9 -9.999 -99.9 -99.99 -9.99
2019/12/11 21:18 PST    0.09   0.17    5   70    6  52.9  53.6 1022.1 -9.9 -9.999 -99.9 -99.99 -9.99
2019/12/11 21:24 PST    0.14   0.22    4   71    6  52.9  53.6 1022.3 -9.9 -9.999 -99.9 -99.99 -9.99
2019/12/11 21:30 PST    0.19   0.28    4   71    5  52.9  53.6 1022.3 -9.9 -9.999 -99.9 -99.99 -9.99
2019/12/11 21:36 PST    0.26   0.36    4   80    5  52.9  53.6 1022.3 -9.9 -9.999 -99.9 -99.99 -9.99
2019/12/11 21:42 PST    0.32   0.44    4   85    5  52.9  53.6 1022.3 -9.9 -9.999 -99.9 -99.99 -9.99
2019/12/11 21:48 PST    0.39   0.52    5   69    5  52.9  53.6 1022.4 -9.9 -9.999 -99.9 -99.99 -9.99
2019/12/11 21:54 PST    0.47   0.61    4   74    5  52.9  53.4 1022.4 -9.9 -9.999 -99.9 -99.99 -9.99
2019/12/11 22:00 PST    0.54   0.70    6   77    7  52.7  53.2 1022.4 -9.9 -9.999 -99.9 -99.99 -9.99
2019/12/11 22:06 PST    0.63   0.80    4   75    6  52.7  53.2 1022.3 -9.9 -9.999 -99.9 -99.99 -9.99
2019/12/11 22:12 PST    0.71   0.90    4   73    5  52.7  53.2 1022.4 -9.9 -9.999 -99.9 -99.99 -9.99
2019/12/11 22:18 PST    0.80   1.01    4   71    6  52.7  53.2 1022.5 -9.9 -9.999 -99.9 -99.99 -9.99
2019/12/11 22:24 PST    0.89   1.13    5   62    6  52.7  53.2 1022.6 -9.9 -9.999 -99.9 -99.99 -9.99
2019/12/11 22:30 PST    0.98   1.24    7   58    8  52.7  53.2 1022.6 -9.9 -9.999 -99.9 -99.99 -9.99
2019/12/11 22:36 PST    1.08   1.37    6   53    8  52.5  53.2 1022.7 -9.9 -9.999 -99.9 -99.99 -9.99
2019/12/11 22:42 PST    1.17   1.49    6   50    7  52.5  53.2 1022.8 -9.9 -9.999 -99.9 -99.99 -9.99
2019/12/11 22:48 PST    1.27   1.62    6   45    7  52.5  53.2 1022.7 -9.9 -9.999 -99.9 -99.99 -9.99
2019/12/11 22:54 PST    1.37   1.74    6   48    7  52.3  53.2 1022.6 -9.9 -9.999 -99.9 -99.99 -9.99
2019/12/11 23:00 PST    1.47   1.86    7   58    8  52.3  53.1 1022.5 -9.9 -9.999 -99.9 -99.99 -9.99
2019/12/11 23:06 PST    1.56   1.99    6   56    7  52.3  53.1 1022.5 -9.9 -9.999 -99.9 -99.99 -9.99
2019/12/11 23:12 PST    1.66   2.12    7   51    8  52.3  53.1 1022.5 -9.9 -9.999 -99.9 -99.99 -9.99
2019/12/11 23:18 PST    1.76   2.24    7   46    8  52.3  53.1 1022.5 -9.9 -9.999 -99.9 -99.99 -9.99
2019/12/11 23:24 PST    1.86   2.35    7   51    9  52.3  53.1 1022.5 -9.9 -9.999 -99.9 -99.99 -9.99
2019/12/11 23:30 PST    1.95   2.45    6   52    8  52.3  53.1 1022.5 -9.9 -9.999 -99.9 -99.99 -9.99
2019/12/11 23:36 PST    2.05   2.56    6   57    7  52.3  53.1 1022.4 -9.9 -9.999 -99.9 -99.99 -9.99
2019/12/11 23:42 PST    2.14   2.66    8   54    9  52.3  53.1 1022.4 -9.9 -9.999 -99.9 -99.99 -9.99
2019/12/11 23:48 PST    2.24   2.76    8   57    9  52.3  53.1 1022.3 -9.9 -9.999 -99.9 -99.99 -9.99
2019/12/11 23:54 PST    2.33   2.86    9   60   10  52.3  53.1 1022.2 -9.9 -9.999 -99.9 -99.99 -9.99
2019/12/12 00:00 PST    2.42   2.95    8   54   10  52.3  53.1 1022.3 -9.9 -9.999 -99.9 -99.99 -9.99
2019/12/12 00:06 PST    2.50   3.05    7   50    8  52.3  53.1 1022.4 -9.9 -9.999 -99.9 -99.99 -9.99
2019/12/12 00:12 PST    2.59   3.13    7   49    8  52.3  53.1 1022.4 -9.9 -9.999 -99.9 -99.99 -9.99
2019/12/12 00:18 PST    2.67   3.21    6   54    7  52.3  53.1 1022.3 -9.9 -9.999 -99.9 -99.99 -9.99
2019/12/12 00:24 PST    2.75   3.29    6   58    7  52.3  53.1 1022.1 -9.9 -9.999 -99.9 -99.99 -9.99
2019/12/12 00:30 PST    2.83   3.37    6   64    8  52.3  53.1 1022.0 -9.9 -9.999 -99.9 -99.99 -9.99
2019/12/12 00:36 PST    2.91   3.44    7   59    8  52.3  53.1 1022.0 -9.9 -9.999 -99.9 -99.99 -9.99
2019/12/12 00:42 PST    2.99   3.51    7   54    8  52.3  53.1 1022.2 -9.9 -9.999 -99.9 -99.99 -9.99
2019/12/12 00:48 PST    3.06   3.58    6   48    7  52.3  53.1 1022.2 -9.9 -9.999 -99.9 -99.99 -9.99
2019/12/12 00:54 PST    3.13   3.63    5   52    6  52.3  53.1 1022.2 -9.9 -9.999 -99.9 -99.99 -9.99
2019/12/12 01:00 PST    3.19   3.70    5   57    6  52.5  53.1 1022.2 -9.9 -9.999 -99.9 -99.99 -9.99
2019/12/12 01:06 PST    3.26   3.75    5   56    6  52.5  53.1 1022.1 -9.9 -9.999 -99.9 -99.99 -9.99
2019/12/12 01:12 PST    3.32   3.80    6   58    6  52.3  53.1 1022.1 -9.9 -9.999 -99.9 -99.99 -9.99
2019/12/12 01:18 PST    3.38   3.85    5   56    6  52.5  53.1 1022.1 -9.9 -9.999 -99.9 -99.99 -9.99
2019/12/12 01:24 PST    3.43   3.89    5   65    6  52.5  53.1 1022.0 -9.9 -9.999 -99.9 -99.99 -9.99
2019/12/12 01:30 PST    3.48   3.94    4   66    5  52.5  53.1 1022.0 -9.9 -9.999 -99.9 -99.99 -9.99
2019/12/12 01:36 PST    3.53   3.97    4   72    5  52.5  53.1 1022.0 -9.9 -9.999 -99.9 -99.99 -9.99
2019/12/12 01:42 PST    3.57   4.01    4   72    6  52.5  53.1 1022.0 -9.9 -9.999 -99.9 -99.99 -9.99
2019/12/12 01:48 PST    3.62   4.04    3   48    4  52.5  53.1 1022.2 -9.9 -9.999 -99.9 -99.99 -9.99
2019/12/12 01:54 PST    3.65   4.06    4   40    4  52.5  53.1 1022.3 -9.9 -9.999 -99.9 -99.99 -9.99
2019/12/12 02:00 PST    3.68   4.09    3   40    4  52.7  53.1 1022.4 -9.9 -9.999 -99.9 -99.99 -9.99
2019/12/12 02:06 PST    3.71   4.12    4   29    4  52.5  53.1 1022.5 -9.9 -9.999 -99.9 -99.99 -9.99
2019/12/12 02:12 PST    3.74   4.13    3   37    4  52.7  53.1 1022.6 -9.9 -9.999 -99.9 -99.99 -9.99
2019/12/12 02:18 PST    3.75   4.15    3   30    4  52.5  53.1 1022.7 -9.9 -9.999 -99.9 -99.99 -9.99
2019/12/12 02:24 PST    3.77   4.16    4   26    4  52.5  53.1 1022.7 -9.9 -9.999 -99.9 -99.99 -9.99
2019/12/12 02:30 PST    3.78   4.16    4   43    4  52.5  53.2 1022.7 -9.9 -9.999 -99.9 -99.99 -9.99
2019/12/12 02:36 PST    3.79   4.16    5   54    6  52.5  53.1 1022.7 -9.9 -9.999 -99.9 -99.99 -9.99
2019/12/12 02:42 PST    3.79   4.16    3   66    5  52.5  53.2 1022.8 -9.9 -9.999 -99.9 -99.99 -9.99
2019/12/12 02:48 PST    3.78   4.16    4   68    5  52.5  53.1 1022.8 -9.9 -9.999 -99.9 -99.99 -9.99
2019/12/12 02:54 PST    3.78   4.16    4   76    6  52.7  53.2 1022.9 -9.9 -9.999 -99.9 -99.99 -9.99
2019/12/12 03:00 PST    3.76   4.16    6   72    7  52.7  53.2 1022.8 -9.9 -9.999 -99.9 -99.99 -9.99
2019/12/12 03:06 PST    3.75   4.15    6   81    7  52.7  53.2 1022.8 -9.9 -9.999 -99.9 -99.99 -9.99
2019/12/12 03:12 PST    3.73   4.14    5   81    7  52.7  53.2 1022.9 -9.9 -9.999 -99.9 -99.99 -9.99
2019/12/12 03:18 PST    3.70   4.11    5   80    7  52.7  53.2 1022.8 -9.9 -9.999 -99.9 -99.99 -9.99
2019/12/12 03:24 PST    3.67   4.09    3   71    6  52.7  53.2 1023.0 -9.9 -9.999 -99.9 -99.99 -9.99
2019/12/12 03:30 PST    3.64   4.06    4   60    5  52.7  53.2 1023.0 -9.9 -9.999 -99.9 -99.99 -9.99
2019/12/12 03:36 PST    3.60   4.03    5   68    6  52.7  53.2 1022.9 -9.9 -9.999 -99.9 -99.99 -9.99
2019/12/12 03:42 PST    3.56   4.00    4   66    6  52.7  53.2 1023.0 -9.9 -9.999 -99.9 -99.99 -9.99
2019/12/12 03:48 PST    3.52   3.95    5   73    6  52.7  53.2 1023.0 -9.9 -9.999 -99.9 -99.99 -9.99
2019/12/12 03:54 PST    3.47   3.92    5   77    6  52.7  53.2 1022.9 -9.9 -9.999 -99.9 -99.99 -9.99
2019/12/12 04:00 PST    3.42   3.88    6   80    7  52.7  53.2 1022.8 -9.9 -9.999 -99.9 -99.99 -9.99
2019/12/12 04:06 PST    3.37   3.84    6   76    7  52.7  53.2 1022.9 -9.9 -9.999 -99.9 -99.99 -9.99
2019/12/12 04:12 PST    3.31   3.79    6   79    7  52.7  53.2 1022.9 -9.9 -9.999 -99.9 -99.99 -9.99
2019/12/12 04:18 PST    3.26   3.73    6   80    8  52.9  53.2 1023.0 -9.9 -9.999 -99.9 -99.99 -9.99
2019/12/12 04:24 PST    3.20   3.67    5   85    8  52.9  53.2 1023.1 -9.9 -9.999 -99.9 -99.99 -9.99
2019/12/12 04:30 PST    3.14   3.60    6   88    7  52.7  53.2 1023.1 -9.9 -9.999 -99.9 -99.99 -9.99
2019/12/12 04:36 PST    3.08   3.54    5  100    7  52.9  53.2 1023.1 -9.9 -9.999 -99.9 -99.99 -9.99
2019/12/12 04:42 PST    3.02   3.47    5  102    7  52.9  53.2 1023.2 -9.9 -9.999 -99.9 -99.99 -9.99
2019/12/12 04:48 PST    2.96   3.40    3   96    5  52.9  53.2 1023.3 -9.9 -9.999 -99.9 -99.99 -9.99
2019/12/12 04:54 PST    2.90   3.32    2  103    4  53.1  53.2 1023.3 -9.9 -9.999 -99.9 -99.99 -9.99
2019/12/12 05:00 PST    2.84   3.25    1   88    2  53.1  53.2 1023.5 -9.9 -9.999 -99.9 -99.99 -9.99
2019/12/12 05:06 PST    2.79   3.17    1   36    1  52.9  53.2 1023.5 -9.9 -9.999 -99.9 -99.99 -9.99
2019/12/12 05:12 PST    2.73   3.09    1   81    2  52.9  53.2 1023.5 -9.9 -9.999 -99.9 -99.99 -9.99
2019/12/12 05:18 PST    2.67   3.02    2   74    2  53.1  53.2 1023.6 -9.9 -9.999 -99.9 -99.99 -9.99
2019/12/12 05:24 PST    2.62   2.94    2   57    2  53.1  53.2 1023.6 -9.9 -9.999 -99.9 -99.99 -9.99
2019/12/12 05:30 PST    2.56   2.87    2   77    3  53.1  53.2 1023.6 -9.9 -9.999 -99.9 -99.99 -9.99
2019/12/12 05:36 PST    2.51   2.80    3   78    3  53.1  53.2 1023.8 -9.9 -9.999 -99.9 -99.99 -9.99
2019/12/12 05:42 PST    2.46   2.72    4   87    4  52.9  53.2 1023.7 -9.9 -9.999 -99.9 -99.99 -9.99
2019/12/12 05:48 PST    2.41   2.66    4   90    4  52.9  53.2 1023.8 -9.9 -9.999 -99.9 -99.99 -9.99
2019/12/12 05:54 PST    2.37   2.59    3   88    5  52.9  53.2 1023.9 -9.9 -9.999 -99.9 -99.99 -9.99
2019/12/12 06:00 PST    2.33   2.53    4   97    4  52.9  53.2 1023.9 -9.9 -9.999 -99.9 -99.99 -9.99
2019/12/12 06:06 PST    2.29   2.47    3  101    4  52.9  53.2 1023.9 -9.9 -9.999 -99.9 -99.99 -9.99
2019/12/12 06:12 PST    2.25   2.41    3   93    4  52.9  53.2 1024.0 -9.9 -9.999 -99.9 -99.99 -9.99
2019/12/12 06:18 PST    2.22   2.36    4  104    4  52.7  53.2 1024.0 -9.9 -9.999 -99.9 -99.99 -9.99
2019/12/12 06:24 PST    2.19   2.32    3   97    5  52.7  53.2 1024.0 -9.9 -9.999 -99.9 -99.99 -9.99
2019/12/12 06:30 PST    2.16   2.28    3  100    4  52.9  53.2 1024.1 -9.9 -9.999 -99.9 -99.99 -9.99
2019/12/12 06:36 PST    2.14   2.25    3   84    4  52.9  53.2 1024.1 -9.9 -9.999 -99.9 -99.99 -9.99
2019/12/12 06:42 PST    2.12   2.22    3   69    5  52.7  53.2 1024.2 -9.9 -9.999 -99.9 -99.99 -9.99
2019/12/12 06:48 PST    2.10   2.19    4   76    5  52.5  53.2 1024.2 -9.9 -9.999 -99.9 -99.99 -9.99
2019/12/12 06:54 PST    2.09   2.17    4   78    5  52.5  53.4 1024.3 -9.9 -9.999 -99.9 -99.99 -9.99
2019/12/12 07:00 PST    2.08   2.15    4   84    5  52.5  53.4 1024.2 -9.9 -9.999 -99.9 -99.99 -9.99
2019/12/12 07:06 PST    2.07   2.14    4   72    5  52.5  53.4 1024.3 -9.9 -9.999 -99.9 -99.99 -9.99
2019/12/12 07:12 PST    2.07   2.14    5   58    6  52.5  53.4 1024.5 -9.9 -9.999 -99.9 -99.99 -9.99
2019/12/12 07:18 PST    2.07   2.14    6   60    7  52.5  53.2 1024.5 -9.9 -9.999 -99.9 -99.99 -9.99
2019/12/12 07:24 PST    2.08   2.15    7   64    8  52.7  53.4 1024.6 -9.9 -9.999 -99.9 -99.99 -9.99
2019/12/12 07:30 PST    2.08   2.16    6   75    7  52.7  53.4 1024.7 -9.9 -9.999 -99.9 -99.99 -9.99
2019/12/12 07:36 PST    2.09   2.16    6   72    7  52.7  53.4 1024.7 -9.9 -9.999 -99.9 -99.99 -9.99
2019/12/12 07:42 PST    2.11   2.24    5   68    6  52.9  53.4 1024.8 -9.9 -9.999 -99.9 -99.99 -9.99
2019/12/12 07:48 PST    2.13   2.28    6   44    7  52.7  53.4 1024.9 -9.9 -9.999 -99.9 -99.99 -9.99
2019/12/12 07:54 PST    2.15   2.30    6   44    7  52.7  53.4 1025.1 -9.9 -9.999 -99.9 -99.99 -9.99
2019/12/12 08:00 PST    2.18   2.33    6   30    7  52.7  53.4 1025.2 -9.9 -9.999 -99.9 -99.99 -9.99
2019/12/12 08:06 PST    2.21   2.36    5   33    6  52.7  53.4 1025.2 -9.9 -9.999 -99.9 -99.99 -9.99
2019/12/12 08:12 PST    2.24   2.41    5   27    6  52.9  53.4 1025.4 -9.9 -9.999 -99.9 -99.99 -9.99
2019/12/12 08:18 PST    2.28   2.45    4   40    5  52.7  53.4 1025.4 -9.9 -9.999 -99.9 -99.99 -9.99
2019/12/12 08:24 PST    2.32   2.52    4   45    5  52.7  53.4 1025.4 -9.9 -9.999 -99.9 -99.99 -9.99
2019/12/12 08:30 PST    2.37   2.59    4   56    5  52.7  53.4 1025.4 -9.9 -9.999 -99.9 -99.99 -9.99
2019/12/12 08:36 PST    2.42   2.65    4   52    5  52.7  53.4 1025.5 -9.9 -9.999 -99.9 -99.99 -9.99
2019/12/12 08:42 PST    2.47   2.73    4   53    5  52.7  53.4 1025.5 -9.9 -9.999 -99.9 -99.99 -9.99
2019/12/12 08:48 PST    2.53   2.82    5   55    5  52.5  53.4 1025.6 -9.9 -9.999 -99.9 -99.99 -9.99
2019/12/12 08:54 PST    2.59   2.90    5   63    5  52.7  53.4 1025.5 -9.9 -9.999 -99.9 -99.99 -9.99
2019/12/12 09:00 PST    2.66   2.99    5   69    6  52.7  53.4 1025.5 -9.9 -9.999 -99.9 -99.99 -9.99
2019/12/12 09:06 PST    2.73   3.07    5   71    6  52.9  53.4 1025.6 -9.9 -9.999 -99.9 -99.99 -9.99
2019/12/12 09:12 PST    2.81   3.15    5   68    6  53.1  53.4 1025.6 -9.9 -9.999 -99.9 -99.99 -9.99
2019/12/12 09:18 PST    2.89   3.24    5   68    6  53.1  53.4 1025.7 -9.9 -9.999 -99.9 -99.99 -9.99
2019/12/12 09:24 PST    2.97   3.33    5   71    5  53.2  53.4 1025.8 -9.9 -9.999 -99.9 -99.99 -9.99
2019/12/12 09:30 PST    3.06   3.45    5   73    5  53.4  53.4 1026.0 -9.9 -9.999 -99.9 -99.99 -9.99
2019/12/12 09:36 PST    3.15   3.53    6   69    6  53.4  53.4 1026.0 -9.9 -9.999 -99.9 -99.99 -9.99
2019/12/12 09:42 PST    3.25   3.63    5   75    6  53.6  53.4 1025.9 -9.9 -9.999 -99.9 -99.99 -9.99
2019/12/12 09:48 PST    3.34   3.73    4   69    5  54.1  53.4 1025.9 -9.9 -9.999 -99.9 -99.99 -9.99
2019/12/12 09:54 PST    3.44   3.82    5   55    5  54.0  53.4 1026.0 -9.9 -9.999 -99.9 -99.99 -9.99
2019/12/12 10:00 PST    3.54   3.92    6   54    6  53.6  53.4 1026.1 -9.9 -9.999 -99.9 -99.99 -9.99
2019/12/12 10:06 PST    3.65   4.02    6   57    7  53.4  53.4 1026.2 -9.9 -9.999 -99.9 -99.99 -9.99
2019/12/12 10:12 PST    3.75   4.13    5   39    6  53.6  53.4 1026.3 -9.9 -9.999 -99.9 -99.99 -9.99
2019/12/12 10:18 PST    3.86   4.22    5   41    6  53.4  53.4 1026.3 -9.9 -9.999 -99.9 -99.99 -9.99
2019/12/12 10:24 PST    3.96   4.31    6   56    6  53.4  53.4 1026.3 -9.9 -9.999 -99.9 -99.99 -9.99
2019/12/12 10:30 PST    4.07   4.40    6   64    6  53.6  53.4 1026.3 -9.9 -9.999 -99.9 -99.99 -9.99
2019/12/12 10:36 PST    4.17   4.49    5   59    6  53.6  53.4 1026.3 -9.9 -9.999 -99.9 -99.99 -9.99
2019/12/12 10:42 PST    4.28   4.57    5   58    5  53.6  53.4 1026.4 -9.9 -9.999 -99.9 -99.99 -9.99
2019/12/12 10:48 PST    4.38   4.66    5   56    6  53.6  53.4 1026.3 -9.9 -9.999 -99.9 -99.99 -9.99
2019/12/12 10:54 PST    4.48   4.74    5   59    6  53.8  53.4 1026.2 -9.9 -9.999 -99.9 -99.99 -9.99
2019/12/12 11:00 PST    4.58   4.81    4   55    5  54.0  53.4 1026.3 -9.9 -9.999 -99.9 -99.99 -9.99
2019/12/12 11:06 PST    4.67   4.89    4   63    5  54.0  53.4 1026.3 -9.9 -9.999 -99.9 -99.99 -9.99
2019/12/12 11:12 PST    4.76   4.95    5   60    5  54.0  53.4 1026.2 -9.9 -9.999 -99.9 -99.99 -9.99
2019/12/12 11:18 PST    4.85   5.01    4   49    5  54.0  53.4 1026.1 -9.9 -9.999 -99.9 -99.99 -9.99
2019/12/12 11:24 PST    4.93   5.08    4   53    4  54.1  53.4 1026.2 -9.9 -9.999 -99.9 -99.99 -9.99
2019/12/12 11:30 PST    5.01   5.15    2   35    4  54.1  53.4 1026.2 -9.9 -9.999 -99.9 -99.99 -9.99
2019/12/12 11:36 PST    5.09   5.19    3   36    3  54.1  53.6 1026.1 -9.9 -9.999 -99.9 -99.99 -9.99
2019/12/12 11:42 PST    5.15   5.24    3    7    3  54.3  53.6 1026.0 -9.9 -9.999 -99.9 -99.99 -9.99
2019/12/12 11:48 PST    5.22   5.30    2   34    3  54.5  53.6 1025.8 -9.9 -9.999 -99.9 -99.99 -9.99
2019/12/12 11:54 PST    5.27   5.34    1   51    2  54.3  53.6 1025.8 -9.9 -9.999 -99.9 -99.99 -9.99
2019/12/12 12:00 PST    5.32   5.37    3   39    3  54.5  53.6 1025.8 -9.9 -9.999 -99.9 -99.99 -9.99
2019/12/12 12:06 PST    5.37   5.40    2   58    3  54.7  53.6 1025.7 -9.9 -9.999 -99.9 -99.99 -9.99
2019/12/12 12:12 PST    5.41   5.43    2   29    2  55.0  53.6 1025.8 -9.9 -9.999 -99.9 -99.99 -9.99
2019/12/12 12:18 PST    5.44   5.46    2   34    2  54.9  53.6 1025.8 -9.9 -9.999 -99.9 -99.99 -9.99
2019/12/12 12:24 PST    5.47   5.49    3   54    3  55.0  53.6 1025.8 -9.9 -9.999 -99.9 -99.99 -9.99
2019/12/12 12:30 PST    5.49   5.52    2   42    3  54.9  53.6 1025.8 -9.9 -9.999 -99.9 -99.99 -9.99
2019/12/12 12:36 PST    5.51   5.54    3  315    3  54.5  53.6 1025.7 -9.9 -9.999 -99.9 -99.99 -9.99
2019/12/12 12:42 PST    5.52   5.56    2  326    3  54.7  53.6 1025.5 -9.9 -9.999 -99.9 -99.99 -9.99
2019/12/12 12:48 PST    5.52   5.57    2  335    2  54.7  53.6 1025.5 -9.9 -9.999 -99.9 -99.99 -9.99
2019/12/12 12:54 PST    5.52   5.58    2    4    2  54.7  53.6 1025.4 -9.9 -9.999 -99.9 -99.99 -9.99
2019/12/12 13:00 PST    5.51   5.58    1   55    1  54.9  53.6 1025.3 -9.9 -9.999 -99.9 -99.99 -9.99
2019/12/12 13:06 PST    5.50   5.58    1   77    1  55.0  53.6 1025.4 -9.9 -9.999 -99.9 -99.99 -9.99
2019/12/12 13:12 PST    5.48   5.58    1  120    1  55.6  53.6 1025.3 -9.9 -9.999 -99.9 -99.99 -9.99
2019/12/12 13:18 PST    5.45   5.57    1  113    2  56.5  53.6 1025.2 -9.9 -9.999 -99.9 -99.99 -9.99
2019/12/12 13:24 PST    5.42   5.57    1   83    2  57.0  53.6 1025.0 -9.9 -9.999 -99.9 -99.99 -9.99
2019/12/12 13:30 PST    5.39   5.55    1   94    2  57.4  53.6 1025.0 -9.9 -9.999 -99.9 -99.99 -9.99
2019/12/12 13:36 PST    5.35   5.53    0  101    1  57.9  53.6 1025.1 -9.9 -9.999 -99.9 -99.99 -9.99
2019/12/12 13:42 PST    5.31   5.51    0  292    1  58.1  53.6 1025.2 -9.9 -9.999 -99.9 -99.99 -9.99
2019/12/12 13:48 PST    5.26   5.48    1  345    2  57.6  53.6 1025.1 -9.9 -9.999 -99.9 -99.99 -9.99
2019/12/12 13:54 PST    5.21   5.44    3   26    3  56.8  53.6 1025.0 -9.9 -9.999 -99.9 -99.99 -9.99
2019/12/12 14:00 PST    5.15   5.40    3   43    4  56.7  53.6 1025.1 -9.9 -9.999 -99.9 -99.99 -9.99
2019/12/12 14:06 PST    5.09   5.36    3   69    4  56.5  53.6 1025.1 -9.9 -9.999 -99.9 -99.99 -9.99
2019/12/12 14:12 PST    5.02   5.30    4   76    4  56.7  53.6 1024.9 -9.9 -9.999 -99.9 -99.99 -9.99
2019/12/12 14:18 PST    4.95   5.24    3   81    4  57.4  53.6 1024.8 -9.9 -9.999 -99.9 -99.99 -9.99
2019/12/12 14:24 PST    4.88   5.17    2   80    3  57.9  53.8 1024.9 -9.9 -9.999 -99.9 -99.99 -9.99
2019/12/12 14:30 PST    4.80   5.09    2   74    2  58.1  53.8 1024.8 -9.9 -9.999 -99.9 -99.99 -9.99
2019/12/12 14:36 PST    4.72   5.01    2   77    3  58.3  53.6 1024.8 -9.9 -9.999 -99.9 -99.99 -9.99
2019/12/12 14:42 PST    4.64   4.91    3  133    3  59.2  53.8 1024.7 -9.9 -9.999 -99.9 -99.99 -9.99
2019/12/12 14:48 PST    4.55   4.82    2  150    3  59.4  53.8 1024.6 -9.9 -9.999 -99.9 -99.99 -9.99
2019/12/12 14:54 PST    4.46   4.71    3  168    4  59.5  53.8 1024.6 -9.9 -9.999 -99.9 -99.99 -9.99
2019/12/12 15:00 PST    4.37   4.61    2  191    4  59.5  53.8 1024.6 -9.9 -9.999 -99.9 -99.99 -9.99
2019/12/12 15:06 PST    4.27   4.51    2  160    3  59.9  53.8 1024.5 -9.9 -9.999 -99.9 -99.99 -9.99
2019/12/12 15:12 PST    4.17   4.39    2  259    2  60.1  53.8 1024.7 -9.9 -9.999 -99.9 -99.99 -9.99
2019/12/12 15:18 PST    4.07   4.28    2  267    2  60.1  53.8 1024.8 -9.9 -9.999 -99.9 -99.99 -9.99
2019/12/12 15:24 PST    3.97   4.16    1  298    2  59.0  53.8 1024.6 -9.9 -9.999 -99.9 -99.99 -9.99
2019/12/12 15:30 PST    3.86   4.05    1  359    2  58.8  53.8 1024.6 -9.9 -9.999 -99.9 -99.99 -9.99
2019/12/12 15:36 PST    3.75   3.94    3  340    4  58.6  53.8 1024.8 -9.9 -9.999 -99.9 -99.99 -9.99
2019/12/12 15:42 PST    3.64   3.82    4  354    5  58.8  53.8 1024.9 -9.9 -9.999 -99.9 -99.99 -9.99
2019/12/12 15:48 PST    3.53   3.69    4  317    6  59.4  53.8 1025.1 -9.9 -9.999 -99.9 -99.99 -9.99
2019/12/12 15:54 PST    3.42   3.57    6  328    7  59.5  53.8 1025.1 -9.9 -9.999 -99.9 -99.99 -9.99
2019/12/12 16:00 PST    3.31   3.45    7  309    8  59.4  53.8 1025.0 -9.9 -9.999 -99.9 -99.99 -9.99
2019/12/12 16:06 PST    3.19   3.33    5  321    7  59.4  53.8 1025.0 -9.9 -9.999 -99.9 -99.99 -9.99
2019/12/12 16:12 PST    3.08   3.22    4  320    6  59.5  53.8 1024.7 -9.9 -9.999 -99.9 -99.99 -9.99
2019/12/12 16:18 PST    2.96   3.11    2  314    3  59.2  53.8 1024.7 -9.9 -9.999 -99.9 -99.99 -9.99
2019/12/12 16:24 PST    2.85   3.00    2  316    3  59.2  53.8 1024.7 -9.9 -9.999 -99.9 -99.99 -9.99
2019/12/12 16:30 PST    2.73   2.88    2  286    2  59.5  53.8 1024.8 -9.9 -9.999 -99.9 -99.99 -9.99
2019/12/12 16:36 PST    2.62   2.78    3  277    3  59.4  53.8 1024.8 -9.9 -9.999 -99.9 -99.99 -9.99
2019/12/12 16:42 PST    2.50   2.68    3  276    3  59.0  53.8 1024.8 -9.9 -9.999 -99.9 -99.99 -9.99
2019/12/12 16:48 PST    2.39   2.58    3  257    3  59.4  53.8 1024.7 -9.9 -9.999 -99.9 -99.99 -9.99
2019/12/12 16:54 PST    2.28   2.47    2  251    3  58.8  53.8 1024.8 -9.9 -9.999 -99.9 -99.99 -9.99
2019/12/12 17:00 PST    2.16   2.38    2  234    3  59.0  53.8 1024.5 -9.9 -9.999 -99.9 -99.99 -9.99
2019/12/12 17:06 PST    2.06   2.28    3  225    3  59.2  53.8 1024.4 -9.9 -9.999 -99.9 -99.99 -9.99
2019/12/12 17:12 PST    1.95   2.20    4  258    4  59.2  53.8 1024.5 -9.9 -9.999 -99.9 -99.99 -9.99
2019/12/12 17:18 PST    1.84   2.13    4  250    5  58.6  53.8 1024.7 -9.9 -9.999 -99.9 -99.99 -9.99
2019/12/12 17:24 PST    1.74   2.05    6  261    7  58.3  53.8 1024.7 -9.9 -9.999 -99.9 -99.99 -9.99
2019/12/12 17:30 PST    1.64   1.98    8  262    9  58.6  54.0 1024.7 -9.9 -9.999 -99.9 -99.99 -9.99
2019/12/12 17:36 PST    1.54   1.91    6  254    8  58.5  54.0 1024.7 -9.9 -9.999 -99.9 -99.99 -9.99
2019/12/12 17:42 PST    1.44   1.83    4  243    7  57.4  54.0 1024.7 -9.9 -9.999 -99.9 -99.99 -9.99
2019/12/12 17:48 PST    1.35   1.76    4  240    5  57.2  54.0 1024.6 -9.9 -9.999 -99.9 -99.99 -9.99
2019/12/12 17:54 PST    1.26   1.68    1  147    4  57.7  54.0 1024.8 -9.9 -9.999 -99.9 -99.99 -9.99
2019/12/12 18:00 PST    1.17   1.62    1   88    3  57.9  54.0 1025.0 -9.9 -9.999 -99.9 -99.99 -9.99
2019/12/12 18:06 PST    1.08   1.55    2   72    4  58.1  54.0 1024.8 -9.9 -9.999 -99.9 -99.99 -9.99
2019/12/12 18:12 PST    1.00   1.48    2  277    3  58.3  54.0 1024.9 -9.9 -9.999 -99.9 -99.99 -9.99
2019/12/12 18:18 PST    0.92   1.41    2  251    3  58.5  54.0 1024.8 -9.9 -9.999 -99.9 -99.99 -9.99
2019/12/12 18:24 PST    0.84   1.35    4  236    6  58.8  54.0 1024.9 -9.9 -9.999 -99.9 -99.99 -9.99
2019/12/12 18:30 PST    0.77   1.28    3  251    4  58.6  54.0 1025.0 -9.9 -9.999 -99.9 -99.99 -9.99
2019/12/12 18:36 PST    0.70   1.21    1  102    2  58.6  54.0 1024.8 -9.9 -9.999 -99.9 -99.99 -9.99
2019/12/12 18:42 PST    0.63   1.14    3   46    3  58.6  54.0 1024.7 -9.9 -9.999 -99.9 -99.99 -9.99
2019/12/12 18:48 PST    0.56   1.07    2  276    3  58.6  54.0 1024.9 -9.9 -9.999 -99.9 -99.99 -9.99
2019/12/12 18:54 PST    0.50   1.01    2  269    3  58.8  54.0 1025.0 -9.9 -9.999 -99.9 -99.99 -9.99
2019/12/12 19:00 PST    0.44   0.95    2  266    3  58.6  54.0 1024.7 -9.9 -9.999 -99.9 -99.99 -9.99
2019/12/12 19:06 PST    0.38   0.89    2  225    2  58.8  54.0 1024.6 -9.9 -9.999 -99.9 -99.99 -9.99
2019/12/12 19:12 PST    0.33   0.82    2  256    3  59.0  54.0 1024.6 -9.9 -9.999 -99.9 -99.99 -9.99
2019/12/12 19:18 PST    0.28   0.77    3  339    4  58.1  54.0 1024.7 -9.9 -9.999 -99.9 -99.99 -9.99
2019/12/12 19:24 PST    0.23   0.70    0  336    3  58.1  54.0 1024.7 -9.9 -9.999 -99.9 -99.99 -9.99
2019/12/12 19:30 PST    0.18   0.64    3  219    3  58.5  54.0 1024.4 -9.9 -9.999 -99.9 -99.99 -9.99
2019/12/12 19:36 PST    0.13   0.57    3  238    4  58.5  54.0 1024.5 -9.9 -9.999 -99.9 -99.99 -9.99
2019/12/12 19:42 PST    0.09   0.49    3  232    3  58.5  54.0 1024.6 -9.9 -9.999 -99.9 -99.99 -9.99
2019/12/12 19:48 PST    0.05   0.43    2  218    3  58.3  54.0 1024.6 -9.9 -9.999 -99.9 -99.99 -9.99
2019/12/12 19:54 PST    0.01   0.37    0  126    1  58.1  54.0 1024.7 -9.9 -9.999 -99.9 -99.99 -9.99
2019/12/12 20:00 PST   -0.02   0.31    1  161    1  57.9  54.0 1024.6 -9.9 -9.999 -99.9 -99.99 -9.99
2019/12/12 20:06 PST   -0.05   0.26    1  181    2  58.1  54.0 1024.7 -9.9 -9.999 -99.9 -99.99 -9.99
2019/12/12 20:12 PST   -0.08   0.20    1  208    2  58.1  54.0 1024.7 -9.9 -9.999 -99.9 -99.99 -9.99
2019/12/12 20:18 PST   -0.11   0.15    2  257    2  58.1  54.0 1024.7 -9.9 -9.999 -99.9 -99.99 -9.99
2019/12/12 20:24 PST   -0.13   0.10    2  272    2  57.9  54.0 1024.7 -9.9 -9.999 -99.9 -99.99 -9.99
2019/12/12 20:30 PST   -0.16   0.05    3  279    3  57.7  54.0 1024.6 -9.9 -9.999 -99.9 -99.99 -9.99
2019/12/12 20:36 PST   -0.17   0.02    3  270    4  57.6  54.0 1024.6 -9.9 -9.999 -99.9 -99.99 -9.99
2019/12/12 20:42 PST   -0.19  -0.02    0  230    3  57.2  54.0 1024.6 -9.9 -9.999 -99.9 -99.99 -9.99
2019/12/12 20:48 PST   -0.20  -0.05    3  249    4  57.4  54.0 1024.7 -9.9 -9.999 -99.9 -99.99 -9.99
2019/12/12 20:54 PST   -0.20  -0.08    4  227    4  56.7  54.0 1024.6 -9.9 -9.999 -99.9 -99.99 -9.99
2019/12/12 21:00 PST   -0.21  -0.12    3  239    4  56.1  54.0 1024.8 -9.9 -9.999 -99.9 -99.99 -9.99
2019/12/12 21:06 PST   -0.20  -0.14    4  256    5  56.5  54.0 1024.8 -9.9 -9.999 -99.9 -99.99 -9.99
2019/12/12 21:12 PST   -0.20  -0.15    3  250    5  55.9  54.0 1024.6 -9.9 -9.999 -99.9 -99.99 -9.99
2019/12/12 21:18 PST   -0.18  -0.16    3  214    4  55.8  54.0 1024.2 -9.9 -9.999 -99.9 -99.99 -9.99
2019/12/12 21:24 PST   -0.17  -0.15    2  223    3  55.8  54.0 1024.6 -9.9 -9.999 -99.9 -99.99 -9.99
2019/12/12 21:30 PST   -0.15  -0.17    4  231    5  55.9  54.0 1024.6 -9.9 -9.999 -99.9 -99.99 -9.99
2019/12/12 21:36 PST   -0.12  -0.16    3  240    5  55.2  54.0 1024.5 -9.9 -9.999 -99.9 -99.99 -9.99
2019/12/12 21:42 PST   -0.09  -0.15    4  254    5  55.4  54.0 1024.5 -9.9 -9.999 -99.9 -99.99 -9.99
2019/12/12 21:48 PST   -0.05  -0.12    4  254    6  55.4  54.0 1024.5 -9.9 -9.999 -99.9 -99.99 -9.99
2019/12/12 21:54 PST   -0.01  -0.09    7  264    9  56.7  54.0 1024.5 -9.9 -9.999 -99.9 -99.99 -9.99
2019/12/12 22:00 PST    0.04  -0.06    9  263   10  57.0  54.0 1024.5 -9.9 -9.999 -99.9 -99.99 -9.99
2019/12/12 22:06 PST    0.09  -0.01   10  261   11  57.0  54.0 1024.6 -9.9 -9.999 -99.9 -99.99 -9.99
2019/12/12 22:12 PST    0.15   0.03    9  256   11  57.0  54.0 1024.5 -9.9 -9.999 -99.9 -99.99 -9.99
2019/12/12 22:18 PST    0.21   0.11    9  257   10  56.8  54.0 1024.7 -9.9 -9.999 -99.9 -99.99 -9.99
2019/12/12 22:24 PST    0.28   0.19    9  255   11  56.8  53.8 1024.6 -9.9 -9.999 -99.9 -99.99 -9.99
2019/12/12 22:30 PST    0.35   0.27    8  251   11  56.7  53.6 1024.7 -9.9 -9.999 -99.9 -99.99 -9.99
2019/12/12 22:36 PST    0.42   0.36    7  250   10  56.5  53.6 1024.7 -9.9 -9.999 -99.9 -99.99 -9.99
2019/12/12 22:42 PST    0.50   0.47    8  252    9  56.7  53.6 1024.8 -9.9 -9.999 -99.9 -99.99 -9.99
2019/12/12 22:48 PST    0.59   0.58    9  246   10  56.7  53.6 1024.8 -9.9 -9.999 -99.9 -99.99 -9.99
2019/12/12 22:54 PST    0.67   0.69    7  242   10  56.7  53.6 1024.9 -9.9 -9.999 -99.9 -99.99 -9.99
2019/12/12 23:00 PST    0.76   0.81    7  238    9  56.7  53.4 1024.9 -9.9 -9.999 -99.9 -99.99 -9.99
2019/12/12 23:06 PST    0.86   0.93    8  239   11  56.7  53.4 1024.9 -9.9 -9.999 -99.9 -99.99 -9.99
2019/12/12 23:12 PST    0.95   1.03    7  236   10  56.7  53.4 1024.7 -9.9 -9.999 -99.9 -99.99 -9.99
2019/12/12 23:18 PST    1.05   1.15    6  244    8  56.5  53.4 1024.9 -9.9 -9.999 -99.9 -99.99 -9.99
2019/12/12 23:24 PST    1.15   1.27    8  249    9  56.7  53.4 1025.1 -9.9 -9.999 -99.9 -99.99 -9.99
2019/12/12 23:30 PST    1.25   1.39    7  241    8  56.7  53.4 1024.9 -9.9 -9.999 -99.9 -99.99 -9.99
2019/12/12 23:36 PST    1.35   1.52    6  241    8  56.7  53.4 1024.9 -9.9 -9.999 -99.9 -99.99 -9.99
2019/12/12 23:42 PST    1.45   1.65    6  241    7  56.8  53.4 1024.8 -9.9 -9.999 -99.9 -99.99 -9.99
2019/12/12 23:48 PST    1.55   1.78    7  242    9  56.7  53.4 1025.2 -9.9 -9.999 -99.9 -99.99 -9.99
2019/12/12 23:54 PST    1.65   1.90    7  240    9  56.7  53.4 1025.2 -9.9 -9.999 -99.9 -99.99 -9.99
2019/12/13 00:00 PST    1.75   2.02    6  223    9  56.8  53.4 1024.3 -9.9 -9.999 -99.9 -99.99 -9.99
2019/12/13 00:06 PST    1.85   2.14    7  230    9  56.7  53.4 1024.5 -9.9 -9.999 -99.9 -99.99 -9.99
2019/12/13 00:12 PST    1.95   2.25    6  238    8  56.7  53.4 1024.4 -9.9 -9.999 -99.9 -99.99 -9.99
2019/12/13 00:18 PST    2.05   2.36    6  247    8  56.5  53.4 1024.9 -9.9 -9.999 -99.9 -99.99 -9.99
2019/12/13 00:24 PST    2.15   2.46    8  248    8  56.3  53.4 1025.1 -9.9 -9.999 -99.9 -99.99 -9.99
2019/12/13 00:30 PST    2.24   2.56    7  233    8  56.5  53.4 1025.0 -9.9 -9.999 -99.9 -99.99 -9.99
2019/12/13 00:36 PST    2.34   2.67    6  238    8  56.3  53.4 1025.1 -9.9 -9.999 -99.9 -99.99 -9.99
2019/12/13 00:42 PST    2.43   2.77    7  241    8  56.3  53.4 1025.1 -9.9 -9.999 -99.9 -99.99 -9.99
2019/12/13 00:48 PST    2.52   2.85    4  203    7  56.3  53.4 1024.5 -9.9 -9.999 -99.9 -99.99 -9.99
2019/12/13 00:54 PST    2.60   2.93    5  222    6  56.1  53.4 1024.4 -9.9 -9.999 -99.9 -99.99 -9.99
2019/12/13 01:00 PST    2.69   3.02    6  231    7  56.3  53.4 1024.2 -9.9 -9.999 -99.9 -99.99 -9.99
2019/12/13 01:06 PST    2.77   3.10    6  243    7  56.1  53.4 1024.1 -9.9 -9.999 -99.9 -99.99 -9.99
2019/12/13 01:12 PST    2.85   3.18    5  234    6  56.1  53.4 1024.1 -9.9 -9.999 -99.9 -99.99 -9.99
2019/12/13 01:18 PST    2.93   3.26    6  233    7  56.1  53.4 1024.2 -9.9 -9.999 -99.9 -99.99 -9.99
2019/12/13 01:24 PST    3.01   3.32    5  241    8  56.1  53.4 1024.4 -9.9 -9.999 -99.9 -99.99 -9.99
2019/12/13 01:30 PST    3.08   3.40    5  238    6  55.9  53.4 1024.3 -9.9 -9.999 -99.9 -99.99 -9.99
2019/12/13 01:36 PST    3.15   3.45    6  230    7  55.9  53.4 1024.3 -9.9 -9.999 -99.9 -99.99 -9.99
2019/12/13 01:42 PST    3.22   3.51    7  228    7  55.8  53.4 1024.2 -9.9 -9.999 -99.9 -99.99 -9.99
2019/12/13 01:48 PST    3.28   3.56    6  240    7  55.6  53.4 1024.3 -9.9 -9.999 -99.9 -99.99 -9.99
2019/12/13 01:54 PST    3.34   3.62    5  233    7  55.4  53.4 1024.1 -9.9 -9.999 -99.9 -99.99 -9.99
2019/12/13 02:00 PST    3.40   3.67    5  242    7  54.9  53.4 1024.0 -9.9 -9.999 -99.9 -99.99 -9.99
2019/12/13 02:06 PST    3.46   3.71    4  233    6  54.9  53.4 1023.9 -9.9 -9.999 -99.9 -99.99 -9.99
2019/12/13 02:12 PST    3.51   3.76    4  223    5  54.9  53.4 1023.9 -9.9 -9.999 -99.9 -99.99 -9.99
2019/12/13 02:18 PST    3.56   3.79    4  233    5  54.7  53.4 1023.7 -9.9 -9.999 -99.9 -99.99 -9.99
2019/12/13 02:24 PST    3.61   3.82    5  256    7  55.4  53.4 1023.6 -9.9 -9.999 -99.9 -99.99 -9.99
2019/12/13 02:30 PST    3.65   3.85    4  265    6  55.0  53.4 1023.7 -9.9 -9.999 -99.9 -99.99 -9.99
2019/12/13 02:36 PST    3.69   3.87    5  254    6  54.9  53.4 1023.5 -9.9 -9.999 -99.9 -99.99 -9.99
2019/12/13 02:42 PST    3.72   3.90    4  248    6  54.7  53.4 1023.3 -9.9 -9.999 -99.9 -99.99 -9.99
2019/12/13 02:48 PST    3.76   3.93    4  252    6  54.7  53.4 1023.3 -9.9 -9.999 -99.9 -99.99 -9.99
2019/12/13 02:54 PST    3.78   3.95    5  234    6  54.3  53.4 1023.2 -9.9 -9.999 -99.9 -99.99 -9.99
2019/12/13 03:00 PST    3.81   3.97    7  238    8  55.2  53.4 1023.4 -9.9 -9.999 -99.9 -99.99 -9.99
2019/12/13 03:06 PST    3.82   3.98    5  235    7  55.2  53.4 1023.2 -9.9 -9.999 -99.9 -99.99 -9.99
2019/12/13 03:12 PST    3.84   3.98    5  229    6  55.4  53.4 1023.2 -9.9 -9.999 -99.9 -99.99 -9.99
2019/12/13 03:18 PST    3.85   3.99    5  232    6  55.2  53.4 1023.1 -9.9 -9.999 -99.9 -99.99 -9.99
2019/12/13 03:24 PST    3.85   3.99    5  233    7  55.0  53.4 1023.1 -9.9 -9.999 -99.9 -99.99 -9.99
2019/12/13 03:30 PST    3.86   4.00    5  236    6  54.9  53.4 1023.1 -9.9 -9.999 -99.9 -99.99 -9.99
2019/12/13 03:36 PST    3.85   4.00    5  242    6  54.7  53.4 1023.2 -9.9 -9.999 -99.9 -99.99 -9.99
2019/12/13 03:42 PST    3.84   4.01    5  249    7  54.9  53.4 1023.3 -9.9 -9.999 -99.9 -99.99 -9.99
2019/12/13 03:48 PST    3.83   4.01    4  233    6  54.9  53.4 1023.4 -9.9 -9.999 -99.9 -99.99 -9.99
2019/12/13 03:54 PST    3.82   3.99    4  236    6  54.5  53.4 1023.5 -9.9 -9.999 -99.9 -99.99 -9.99
2019/12/13 04:00 PST    3.80   3.98    7  257    9  54.7  53.4 1023.5 -9.9 -9.999 -99.9 -99.99 -9.99
2019/12/13 04:06 PST    3.77   3.95    7  252    9  54.7  53.4 1023.2 -9.9 -9.999 -99.9 -99.99 -9.99
2019/12/13 04:12 PST    3.74   3.93    6  253    8  54.7  53.4 1023.2 -9.9 -9.999 -99.9 -99.99 -9.99
2019/12/13 04:18 PST    3.71   3.91    7  256    9  54.7  53.4 1023.4 -9.9 -9.999 -99.9 -99.99 -9.99
2019/12/13 04:24 PST    3.67   3.89    6  253    9  54.5  53.4 1023.2 -9.9 -9.999 -99.9 -99.99 -9.99
2019/12/13 04:30 PST    3.64   3.86    6  251    7  54.3  53.4 1023.1 -9.9 -9.999 -99.9 -99.99 -9.99
2019/12/13 04:36 PST    3.59   3.82    5  250    7  54.3  53.4 1023.2 -9.9 -9.999 -99.9 -99.99 -9.99
2019/12/13 04:42 PST    3.55   3.79    8  263    9  54.5  53.4 1023.4 -9.9 -9.999 -99.9 -99.99 -9.99
2019/12/13 04:48 PST    3.50   3.74    6  256    8  54.5  53.4 1023.1 -9.9 -9.999 -99.9 -99.99 -9.99
2019/12/13 04:54 PST    3.45   3.69    4  252    6  54.5  53.4 1023.1 -9.9 -9.999 -99.9 -99.99 -9.99
2019/12/13 05:00 PST    3.40   3.63    4  253    5  54.3  53.4 1023.2 -9.9 -9.999 -99.9 -99.99 -9.99
2019/12/13 05:06 PST    3.34   3.58    5  249    6  54.3  53.4 1023.2 -9.9 -9.999 -99.9 -99.99 -9.99
2019/12/13 05:12 PST    3.29   3.52    4  248    6  54.3  53.4 1022.8 -9.9 -9.999 -99.9 -99.99 -9.99
2019/12/13 05:18 PST    3.23   3.46    5  247    6  54.3  53.4 1022.9 -9.9 -9.999 -99.9 -99.99 -9.99
2019/12/13 05:24 PST    3.17   3.41    6  253    8  54.3  53.4 1023.0 -9.9 -9.999 -99.9 -99.99 -9.99
2019/12/13 05:30 PST    3.11   3.34   10  268   11  54.5  53.4 1023.5 -9.9 -9.999 -99.9 -99.99 -9.99
2019/12/13 05:36 PST    3.05   3.28   12  271   13  54.5  53.4 1023.6 -9.9 -9.999 -99.9 -99.99 -9.99
2019/12/13 05:42 PST    2.99   3.19   11  273   14  54.5  53.4 1023.6 -9.9 -9.999 -99.9 -99.99 -9.99
2019/12/13 05:48 PST    2.93   3.11   10  268   11  54.5  53.6 1023.5 -9.9 -9.999 -99.9 -99.99 -9.99
2019/12/13 05:54 PST    2.87   3.04    8  263   10  54.3  53.6 1023.2 -9.9 -9.999 -99.9 -99.99 -9.99
2019/12/13 06:00 PST    2.82   2.97    6  257    8  54.3  53.6 1023.0 -9.9 -9.999 -99.9 -99.99 -9.99
2019/12/13 06:06 PST    2.76   2.90    6  266    7  54.1  53.6 1023.0 -9.9 -9.999 -99.9 -99.99 -9.99
2019/12/13 06:12 PST    2.70   2.84    8  272    9  54.1  53.6 1023.1 -9.9 -9.999 -99.9 -99.99 -9.99
2019/12/13 06:18 PST    2.65   2.78    8  265    9  54.1  53.6 1022.9 -9.9 -9.999 -99.9 -99.99 -9.99
2019/12/13 06:24 PST    2.60   2.71    5  256    8  54.0  53.6 1022.8 -9.9 -9.999 -99.9 -99.99 -9.99
2019/12/13 06:30 PST    2.55   2.65    6  263    7  54.0  53.6 1022.6 -9.9 -9.999 -99.9 -99.99 -9.99
2019/12/13 06:36 PST    2.50   2.59    4  245    6  53.8  53.6 1022.4 -9.9 -9.999 -99.9 -99.99 -9.99
2019/12/13 06:42 PST    2.46   2.53    6  240    7  53.8  53.6 1022.5 -9.9 -9.999 -99.9 -99.99 -9.99
2019/12/13 06:48 PST    2.41   2.47    5  252    7  53.8  53.6 1022.7 -9.9 -9.999 -99.9 -99.99 -9.99
2019/12/13 06:54 PST    2.37   2.41    4  252    5  53.8  53.6 1022.4 -9.9 -9.999 -99.9 -99.99 -9.99
2019/12/13 07:00 PST    2.34   2.37    5  265    5  53.6  53.6 1022.5 -9.9 -9.999 -99.9 -99.99 -9.99
2019/12/13 07:06 PST    2.30   2.33    5  242    5  53.6  53.6 1022.4 -9.9 -9.999 -99.9 -99.99 -9.99
2019/12/13 07:12 PST    2.27   2.30    3  215    6  53.4  53.6 1022.4 -9.9 -9.999 -99.9 -99.99 -9.99
2019/12/13 07:18 PST    2.25   2.28    5  236    7  53.4  53.6 1022.3 -9.9 -9.999 -99.9 -99.99 -9.99
2019/12/13 07:24 PST    2.22   2.26    5  246    6  53.2  53.6 1022.6 -9.9 -9.999 -99.9 -99.99 -9.99
2019/12/13 07:30 PST    2.20   2.24    5  247    6  53.2  53.6 1022.8 -9.9 -9.999 -99.9 -99.99 -9.99
2019/12/13 07:36 PST    2.19   2.22    5  259    6  53.2  53.6 1022.8 -9.9 -9.999 -99.9 -99.99 -9.99
2019/12/13 07:42 PST    2.17   2.20    4  249    6  53.2  53.6 1022.9 -9.9 -9.999 -99.9 -99.99 -9.99
2019/12/13 07:48 PST    2.16   2.18    4  248    5  53.2  53.6 1022.5 -9.9 -9.999 -99.9 -99.99 -9.99
2019/12/13 07:54 PST    2.16   2.17    5  259    6  53.4  53.6 1022.6 -9.9 -9.999 -99.9 -99.99 -9.99
2019/12/13 08:00 PST    2.15   2.18    5  248    7  53.6  53.4 1022.8 -9.9 -9.999 -99.9 -99.99 -9.99
2019/12/13 08:06 PST    2.15   2.20    5  260    7  53.8  53.6 1022.9 -9.9 -9.999 -99.9 -99.99 -9.99
2019/12/13 08:12 PST    2.16   2.22    5  286    7  53.8  53.6 1022.7 -9.9 -9.999 -99.9 -99.99 -9.99
2019/12/13 08:18 PST    2.17   2.26    4  268    5  53.8  53.6 1022.8 -9.9 -9.999 -99.9 -99.99 -9.99
2019/12/13 08:24 PST    2.18   2.29    4  255    5  53.8  53.6 1022.7 -9.9 -9.999 -99.9 -99.99 -9.99
2019/12/13 08:30 PST    2.19   2.33    4  261    7  53.8  53.6 1022.5 -9.9 -9.999 -99.9 -99.99 -9.99
2019/12/13 08:36 PST    2.21   2.36    6  269    7  53.8  53.6 1022.9 -9.9 -9.999 -99.9 -99.99 -9.99
2019/12/13 08:42 PST    2.24   2.39    4  270    7  54.0  53.6 1022.7 -9.9 -9.999 -99.9 -99.99 -9.99
2019/12/13 08:48 PST    2.26   2.44    3  267    4  54.0  53.6 1022.5 -9.9 -9.999 -99.9 -99.99 -9.99
2019/12/13 08:54 PST    2.29   2.50    4  271    4  54.0  53.6 1022.6 -9.9 -9.999 -99.9 -99.99 -9.99
2019/12/13 09:00 PST    2.33   2.57    4  256    5  54.0  53.6 1022.4 -9.9 -9.999 -99.9 -99.99 -9.99
2019/12/13 09:06 PST    2.37   2.64    4  267    5  54.1  53.4 1022.7 -9.9 -9.999 -99.9 -99.99 -9.99
2019/12/13 09:12 PST    2.41   2.71    4  267    5  54.1  53.4 1022.4 -9.9 -9.999 -99.9 -99.99 -9.99
2019/12/13 09:18 PST    2.46   2.78    4  269    5  54.1  53.4 1022.3 -9.9 -9.999 -99.9 -99.99 -9.99
2019/12/13 09:24 PST    2.51   2.86    6  267    6  54.0  53.4 1022.8 -9.9 -9.999 -99.9 -99.99 -9.99
2019/12/13 09:30 PST    2.57   2.94    8  271    8  54.1  53.6 1023.2 -9.9 -9.999 -99.9 -99.99 -9.99
2019/12/13 09:36 PST    2.63   3.03    7  272    9  54.1  53.6 1023.2 -9.9 -9.999 -99.9 -99.99 -9.99
2019/12/13 09:42 PST    2.69   3.11    6  266    7  54.1  53.6 1023.4 -9.9 -9.999 -99.9 -99.99 -9.99
2019/12/13 09:48 PST    2.76   3.21   10  271   10  54.1  53.6 1023.5 -9.9 -9.999 -99.9 -99.99 -9.99
2019/12/13 09:54 PST    2.83   3.31    7  270   10  54.1  53.6 1023.5 -9.9 -9.999 -99.9 -99.99 -9.99
2019/12/13 10:00 PST    2.91   3.42    5  260    7  54.3  53.6 1023.4 -9.9 -9.999 -99.9 -99.99 -9.99
2019/12/13 10:06 PST    2.99   3.52    7  279   10  54.5  53.6 1023.7 -9.9 -9.999 -99.9 -99.99 -9.99
2019/12/13 10:12 PST    3.08   3.61    9  275   10  54.3  53.6 1023.7 -9.9 -9.999 -99.9 -99.99 -9.99
2019/12/13 10:18 PST    3.17   3.70    8  270   10  54.5  53.6 1023.9 -9.9 -9.999 -99.9 -99.99 -9.99
2019/12/13 10:24 PST    3.26   3.81    8  276    9  54.7  53.6 1023.9 -9.9 -9.999 -99.9 -99.99 -9.99
2019/12/13 10:30 PST    3.35   3.91   10  277   11  54.7  53.6 1024.0 -9.9 -9.999 -99.9 -99.99 -9.99
2019/12/13 10:36 PST    3.45   4.01   11  287   12  54.9  53.6 1024.2 -9.9 -9.999 -99.9 -99.99 -9.99
2019/12/13 10:42 PST    3.55   4.10    8  305   12  54.7  53.6 1024.0 -9.9 -9.999 -99.9 -99.99 -9.99
2019/12/13 10:48 PST    3.66   4.20    6  311    8  54.5  53.6 1024.0 -9.9 -9.999 -99.9 -99.99 -9.99
2019/12/13 10:54 PST    3.76   4.30    7  296    8  54.5  53.6 1023.9 -9.9 -9.999 -99.9 -99.99 -9.99
2019/12/13 11:00 PST    3.87   4.39    7  294    8  54.5  53.6 1023.8 -9.9 -9.999 -99.9 -99.99 -9.99
2019/12/13 11:06 PST    3.97   4.48    7  298    8  54.5  53.6 1023.7 -9.9 -9.999 -99.9 -99.99 -9.99
2019/12/13 11:12 PST    4.08   4.56    8  299    9  54.5  53.6 1023.7 -9.9 -9.999 -99.9 -99.99 -9.99
2019/12/13 11:18 PST    4.19   4.65    7  300    8  54.5  53.6 1023.5 -9.9 -9.999 -99.9 -99.99 -9.99
2019/12/13 11:24 PST    4.29   4.73    6  290    8  54.7  53.6 1023.4 -9.9 -9.999 -99.9 -99.99 -9.99
2019/12/13 11:30 PST    4.40   4.81    5  283    6  54.7  53.6 1023.4 -9.9 -9.999 -99.9 -99.99 -9.99
2019/12/13 11:36 PST    4.50   4.88    6  282    7  54.7  53.6 1023.4 -9.9 -9.999 -99.9 -99.99 -9.99
2019/12/13 11:42 PST    4.60   4.94    6  278    7  54.7  53.6 1023.2 -9.9 -9.999 -99.9 -99.99 -9.99
2019/12/13 11:48 PST    4.70   5.00    7  275    8  54.7  53.6 1023.0 -9.9 -9.999 -99.9 -99.99 -9.99
2019/12/13 11:54 PST    4.79   5.06    6  275    7  54.7  53.6 1022.8 -9.9 -9.999 -99.9 -99.99 -9.99
2019/12/13 12:00 PST    4.88   5.13    5  271    6  54.7  53.6 1022.7 -9.9 -9.999 -99.9 -99.99 -9.99
2019/12/13 12:06 PST    4.97   5.18    5  266    6  54.7  53.6 1022.5 -9.9 -9.999 -99.9 -99.99 -9.99
2019/12/13 12:12 PST    5.05   5.25    3  223    5  55.2  53.6 1022.3 -9.9 -9.999 -99.9 -99.99 -9.99
2019/12/13 12:18 PST    5.13   5.30    4  237    5  55.4  53.6 1022.0 -9.9 -9.999 -99.9 -99.99 -9.99
2019/12/13 12:24 PST    5.20   5.33    4  225    6  55.8  53.6 1021.8 -9.9 -9.999 -99.9 -99.99 -9.99
2019/12/13 12:30 PST    5.26   5.36    5  190    6  55.9  53.6 1021.4 -9.9 -9.999 -99.9 -99.99 -9.99
2019/12/13 12:36 PST    5.32   5.40    4  186    5  56.3  53.6 1021.3 -9.9 -9.999 -99.9 -99.99 -9.99
2019/12/13 12:42 PST    5.38   5.43    3  223    4  57.0  53.6 1021.3 -9.9 -9.999 -99.9 -99.99 -9.99
2019/12/13 12:48 PST    5.42   5.46    3  187    4  57.6  53.6 1021.0 -9.9 -9.999 -99.9 -99.99 -9.99
2019/12/13 12:54 PST    5.47   5.50    4  196    7  58.1  53.6 1020.7 -9.9 -9.999 -99.9 -99.99 -9.99
2019/12/13 13:00 PST    5.50   5.52    6  191    9  58.6  53.8 1020.5 -9.9 -9.999 -99.9 -99.99 -9.99
2019/12/13 13:06 PST    5.53   5.55    6  186    9  58.8  53.8 1020.4 -9.9 -9.999 -99.9 -99.99 -9.99
2019/12/13 13:12 PST    5.55   5.56    8  185   10  58.8  53.8 1020.4 -9.9 -9.999 -99.9 -99.99 -9.99
2019/12/13 13:18 PST    5.57   5.57    9  179   11  59.0  54.0 1020.0 -9.9 -9.999 -99.9 -99.99 -9.99
2019/12/13 13:24 PST    5.58   5.58    9  179   12  59.0  54.0 1019.9 -9.9 -9.999 -99.9 -99.99 -9.99
2019/12/13 13:30 PST    5.58   5.59    6  199   11  59.0  54.0 1020.0 -9.9 -9.999 -99.9 -99.99 -9.99
2019/12/13 13:36 PST    5.58   5.59    3  206    9  59.0  54.0 1020.2 -9.9 -9.999 -99.9 -99.99 -9.99
2019/12/13 13:42 PST    5.57   5.60    6  185    8  59.2  54.0 1019.8 -9.9 -9.999 -99.9 -99.99 -9.99
2019/12/13 13:48 PST    5.56   5.60   10  167   12  59.2  54.0 1019.0 -9.9 -9.999 -99.9 -99.99 -9.99
2019/12/13 13:54 PST    5.53   5.60    4  191   12  59.2  54.0 1019.5 -9.9 -9.999 -99.9 -99.99 -9.99
2019/12/13 14:00 PST    5.51   5.59    3  215    5  59.2  54.0 1019.9 -9.9 -9.999 -99.9 -99.99 -9.99
2019/12/13 14:06 PST    5.48   5.57    3  210    4  59.2  54.0 1019.8 -9.9 -9.999 -99.9 -99.99 -9.99
2019/12/13 14:12 PST    5.44   5.56    4  206    6  59.4  54.0 1019.7 -9.9 -9.999 -99.9 -99.99 -9.99
2019/12/13 14:18 PST    5.40   5.54    3  220    6  59.4  54.0 1019.9 -9.9 -9.999 -99.9 -99.99 -9.99
2019/12/13 14:24 PST    5.35   5.51    3  220    4  59.5  54.0 1019.7 -9.9 -9.999 -99.9 -99.99 -9.99
2019/12/13 14:30 PST    5.30   5.48    6  257    7  59.5  54.0 1020.1 -9.9 -9.999 -99.9 -99.99 -9.99
2019/12/13 14:36 PST    5.25   5.46    5  272    7  59.0  54.0 1020.1 -9.9 -9.999 -99.9 -99.99 -9.99
2019/12/13 14:42 PST    5.19   5.41    3  281    5  58.3  53.8 1019.7 -9.9 -9.999 -99.9 -99.99 -9.99
2019/12/13 14:48 PST    5.12   5.36    3  291    4  57.6  54.0 1019.8 -9.9 -9.999 -99.9 -99.99 -9.99
2019/12/13 14:54 PST    5.05   5.31    6  317    7  57.9  53.8 1020.1 -9.9 -9.999 -99.9 -99.99 -9.99
2019/12/13 15:00 PST    4.98   5.24    7  315    8  57.2  53.8 1020.2 -9.9 -9.999 -99.9 -99.99 -9.99
2019/12/13 15:06 PST    4.91   5.18    5  315    7  57.4  53.8 1020.0 -9.9 -9.999 -99.9 -99.99 -9.99
2019/12/13 15:12 PST    4.83   5.10    4  299    5  57.4  53.8 1020.0 -9.9 -9.999 -99.9 -99.99 -9.99
2019/12/13 15:18 PST    4.74   5.03    5  298    6  57.6  54.0 1020.0 -9.9 -9.999 -99.9 -99.99 -9.99
2019/12/13 15:24 PST    4.65   4.95    6  285    7  57.7  54.0 1020.0 -9.9 -9.999 -99.9 -99.99 -9.99
2019/12/13 15:30 PST    4.56   4.85    4  253    6  57.2  54.0 1019.8 -9.9 -9.999 -99.9 -99.99 -9.99
2019/12/13 15:36 PST    4.47   4.75    2  204    4  57.4  54.0 1019.7 -9.9 -9.999 -99.9 -99.99 -9.99
2019/12/13 15:42 PST    4.37   4.65    2  207    4  57.6  54.0 1019.6 -9.9 -9.999 -99.9 -99.99 -9.99
2019/12/13 15:48 PST    4.27   4.53    3  212    4  57.6  54.0 1019.6 -9.9 -9.999 -99.9 -99.99 -9.99
2019/12/13 15:54 PST    4.17   4.42    3  212    5  57.6  54.0 1019.4 -9.9 -9.999 -99.9 -99.99 -9.99
2019/12/13 16:00 PST    4.07   4.31    5  225    7  57.6  54.0 1019.2 -9.9 -9.999 -99.9 -99.99 -9.99
2019/12/13 16:06 PST    3.96   4.20    2  199    5  57.4  54.0 1019.0 -9.9 -9.999 -99.9 -99.99 -9.99
2019/12/13 16:12 PST    3.85   4.08    2  178    3  57.6  54.0 1018.8 -9.9 -9.999 -99.9 -99.99 -9.99
2019/12/13 16:18 PST    3.74   3.96    3  177    4  57.6  54.0 1018.8 -9.9 -9.999 -99.9 -99.99 -9.99
2019/12/13 16:24 PST    3.63   3.84    4  159    5  57.7  54.0 1018.5 -9.9 -9.999 -99.9 -99.99 -9.99
2019/12/13 16:30 PST    3.51   3.71    5  177    6  57.7  54.0 1018.4 -9.9 -9.999 -99.9 -99.99 -9.99
2019/12/13 16:36 PST    3.40   3.60    4  185    6  57.6  54.0 1018.2 -9.9 -9.999 -99.9 -99.99 -9.99
2019/12/13 16:42 PST    3.28   3.48    3  224    5  57.4  54.0 1018.5 -9.9 -9.999 -99.9 -99.99 -9.99
2019/12/13 16:48 PST    3.17   3.37    4  220    5  57.2  54.0 1018.6 -9.9 -9.999 -99.9 -99.99 -9.99
2019/12/13 16:54 PST    3.05   3.26    3  223    4  57.2  54.0 1018.7 -9.9 -9.999 -99.9 -99.99 -9.99
2019/12/13 17:00 PST    2.93   3.16    4  246    5  57.0  54.0 1018.9 -9.9 -9.999 -99.9 -99.99 -9.99
2019/12/13 17:06 PST    2.81   3.05    4  255    6  57.0  54.0 1018.9 -9.9 -9.999 -99.9 -99.99 -9.99
2019/12/13 17:12 PST    2.69   2.93    4  252    8  57.4  54.0 1018.9 -9.9 -9.999 -99.9 -99.99 -9.99
2019/12/13 17:18 PST    2.58   2.83    2  251    7  57.4  54.0 1018.8 -9.9 -9.999 -99.9 -99.99 -9.99
2019/12/13 17:24 PST    2.46   2.73    2  246    4  57.0  54.0 1018.9 -9.9 -9.999 -99.9 -99.99 -9.99
2019/12/13 17:30 PST    2.34   2.62    3  243    5  57.2  54.0 1018.7 -9.9 -9.999 -99.9 -99.99 -9.99
2019/12/13 17:36 PST    2.23   2.52    2  261    5  57.0  54.0 1018.7 -9.9 -9.999 -99.9 -99.99 -9.99
2019/12/13 17:42 PST    2.11   2.44    2  231    4  56.8  54.0 1018.7 -9.9 -9.999 -99.9 -99.99 -9.99
2019/12/13 17:48 PST    2.00   2.34    3  224    4  56.8  54.0 1018.9 -9.9 -9.999 -99.9 -99.99 -9.99
2019/12/13 17:54 PST    1.89   2.25    2  261    3  56.8  54.1 1018.7 -9.9 -9.999 -99.9 -99.99 -9.99
2019/12/13 18:00 PST    1.78   2.17    4  288    5  57.0  54.0 1018.6 -9.9 -9.999 -99.9 -99.99 -9.99
2019/12/13 18:06 PST    1.67   2.10    6  277    7  57.0  54.0 1018.9 -9.9 -9.999 -99.9 -99.99 -9.99
2019/12/13 18:12 PST    1.57   2.02    4  287    7  56.8  54.0 1018.7 -9.9 -9.999 -99.9 -99.99 -9.99
2019/12/13 18:18 PST    1.47   1.94    4  288    5  56.8  54.0 1018.7 -9.9 -9.999 -99.9 -99.99 -9.99
2019/12/13 18:24 PST    1.37   1.87    4  287    5  56.7  54.0 1018.9 -9.9 -9.999 -99.9 -99.99 -9.99
2019/12/13 18:30 PST    1.27   1.81    2  301    4  56.3  54.0 1018.8 -9.9 -9.999 -99.9 -99.99 -9.99
2019/12/13 18:36 PST    1.18   1.74    6  299    6  56.5  54.0 1018.7 -9.9 -9.999 -99.9 -99.99 -9.99
2019/12/13 18:42 PST    1.08   1.68    6  299    8  56.5  54.0 1018.8 -9.9 -9.999 -99.9 -99.99 -9.99
2019/12/13 18:48 PST    1.00   1.62 -999 -999 -999 -99.9  54.1 -999.9 -9.9 -9.999 -99.9 -99.99 -9.99
2019/12/13 18:54 PST    0.91 -99.99 -999 -999 -999 -99.9 -99.9 -999.9 -9.9 -9.999 -99.9 -99.99 -9.99